PWSweather.com
Personal Weather Stations
Station Observations

Enon Chester, VA 23836

Lat: 37.3609267, Lon: -77.31545840000001

Elevation: 89

Station Type: Acurite

http://www.wunderground.com/personal-weather-station/dashboard?ID=KVACHEST67

High Low Average
Temperature 35.6°F2.0°C 25.3°F-3.7°C 30.1°F-1.1°C
Dew Point 24.1°F-4.4°C 6.7°F-14.1°C 12.9°F-10.6°C
Winds 13.0 mph 20.9 kmh Calm Calm 4.0 mph E6.4 kmh E
Wind Gusts 13.0 mph20.9 kmh 1.1 mph1.8 kmh 7.0 mph11.3 kmh
Humidity 95% 32% 52%
Pressure 30.18 in1022.0 mb 29.86 in1011.2 mb -
Precipitation 0.18 in4.6 mm - -
Hour Temp Dew Point Humidity Winds Wind Gusts Pressure Precip Precip Rate Daily Precip Total
01:45 PM 35.1°F1.7°C 8.9°F-12.8°C 33% 1.7 mph SE2.7 kmh SE 1.7 mph2.7 kmh 30.18 in1022.0 mb 0.18 in4.6 mm 0.24 in6.1 mm 0.18 in4.6 mm
01:46 PM 35.2°F1.8°C 8.3°F-13.2°C 32% 1.7 mph ESE2.7 kmh ESE 1.7 mph2.7 kmh 30.18 in1022.0 mb 0.18 in4.6 mm 0.00 in0.0 mm 0.18 in4.6 mm
01:47 PM 35.4°F1.9°C 8.5°F-13.1°C 32% Calm Calm 1.7 mph2.7 kmh 30.18 in1022.0 mb 0.18 in4.6 mm 0.00 in0.0 mm 0.18 in4.6 mm
01:48 PM 35.6°F2.0°C 8.7°F-12.9°C 32% 1.7 mph NNE2.7 kmh NNE 1.7 mph2.7 kmh 30.18 in1022.0 mb 0.18 in4.6 mm 0.00 in0.0 mm 0.18 in4.6 mm
01:49 PM 35.6°F2.0°C 8.7°F-12.9°C 32% 2.2 mph N3.5 kmh N 2.7 mph4.3 kmh 30.18 in1022.0 mb 0.18 in4.6 mm 0.00 in0.0 mm 0.18 in4.6 mm
01:50 PM 35.6°F2.0°C 8.7°F-12.9°C 32% 2.7 mph N4.3 kmh N 2.7 mph4.3 kmh 30.18 in1022.0 mb 0.18 in4.6 mm 0.00 in0.0 mm 0.18 in4.6 mm
01:51 PM 35.4°F1.9°C 9.2°F-12.7°C 33% 2.2 mph NW3.5 kmh NW 3.2 mph5.1 kmh 30.18 in1022.0 mb 0.18 in4.6 mm 0.00 in0.0 mm 0.18 in4.6 mm
01:52 PM 35.4°F1.9°C 9.2°F-12.7°C 33% 2.7 mph NNW4.3 kmh NNW 3.2 mph5.1 kmh 30.18 in1022.0 mb 0.18 in4.6 mm 0.00 in0.0 mm 0.18 in4.6 mm
01:53 PM 35.2°F1.8°C 9.0°F-12.8°C 33% 3.7 mph NNW6.0 kmh NNW 3.7 mph6.0 kmh 30.16 in1021.3 mb 0.18 in4.6 mm 0.00 in0.0 mm 0.18 in4.6 mm
01:54 PM 34.9°F1.6°C 8.8°F-12.9°C 33% 2.7 mph NNW4.3 kmh NNW 3.7 mph6.0 kmh 30.16 in1021.3 mb 0.18 in4.6 mm 0.00 in0.0 mm 0.18 in4.6 mm
01:55 PM 34.9°F1.6°C 8.8°F-12.9°C 33% 1.7 mph NNE2.7 kmh NNE 3.7 mph6.0 kmh 30.16 in1021.3 mb 0.18 in4.6 mm 0.00 in0.0 mm 0.18 in4.6 mm
01:56 PM 34.9°F1.6°C 8.8°F-12.9°C 33% 1.7 mph E2.7 kmh E 3.7 mph6.0 kmh 30.16 in1021.3 mb 0.18 in4.6 mm 0.00 in0.0 mm 0.18 in4.6 mm
01:57 PM 34.9°F1.6°C 8.8°F-12.9°C 33% 3.2 mph NNE5.1 kmh NNE 3.7 mph6.0 kmh 30.16 in1021.3 mb 0.18 in4.6 mm 0.00 in0.0 mm 0.18 in4.6 mm
01:58 PM 34.9°F1.6°C 8.8°F-12.9°C 33% 4.2 mph NNE6.8 kmh NNE 4.2 mph6.8 kmh 30.16 in1021.3 mb 0.18 in4.6 mm 0.00 in0.0 mm 0.18 in4.6 mm
01:59 PM 34.7°F1.5°C 8.6°F-13.0°C 33% 4.2 mph N6.8 kmh N 4.2 mph6.8 kmh 30.16 in1021.3 mb 0.18 in4.6 mm 0.00 in0.0 mm 0.18 in4.6 mm
02:00 PM 34.5°F1.4°C 8.4°F-13.1°C 33% 3.2 mph NNE5.1 kmh NNE 4.2 mph6.8 kmh 30.16 in1021.3 mb 0.18 in4.6 mm 0.00 in0.0 mm 0.18 in4.6 mm
02:01 PM 34.5°F1.4°C 8.4°F-13.1°C 33% 3.2 mph NE5.1 kmh NE 4.2 mph6.8 kmh 30.16 in1021.3 mb 0.18 in4.6 mm 0.00 in0.0 mm 0.18 in4.6 mm
02:02 PM 34.5°F1.4°C 8.4°F-13.1°C 33% 1.1 mph NNE1.8 kmh NNE 4.2 mph6.8 kmh 30.16 in1021.3 mb 0.18 in4.6 mm 0.00 in0.0 mm 0.18 in4.6 mm
02:03 PM 34.5°F1.4°C 9.1°F-12.7°C 34% 1.1 mph NNE1.8 kmh NNE 4.2 mph6.8 kmh 30.16 in1021.3 mb 0.18 in4.6 mm 0.00 in0.0 mm 0.18 in4.6 mm
02:04 PM 34.7°F1.5°C 9.2°F-12.7°C 34% 2.7 mph NE4.3 kmh NE 4.2 mph6.8 kmh 30.16 in1021.3 mb 0.18 in4.6 mm 0.00 in0.0 mm 0.18 in4.6 mm
02:05 PM 34.5°F1.4°C 8.4°F-13.1°C 33% 5.3 mph NNE8.5 kmh NNE 5.3 mph8.5 kmh 30.15 in1021.0 mb 0.18 in4.6 mm 0.00 in0.0 mm 0.18 in4.6 mm
02:06 PM 34.3°F1.3°C 8.2°F-13.2°C 33% 2.7 mph NE4.3 kmh NE 5.3 mph8.5 kmh 30.15 in1021.0 mb 0.18 in4.6 mm 0.00 in0.0 mm 0.18 in4.6 mm
02:07 PM 34.2°F1.2°C 8.1°F-13.3°C 33% 3.7 mph NNE6.0 kmh NNE 5.3 mph8.5 kmh 30.15 in1021.0 mb 0.18 in4.6 mm 0.00 in0.0 mm 0.18 in4.6 mm
02:08 PM 33.8°F1.0°C 7.8°F-13.4°C 33% 3.2 mph NNE5.1 kmh NNE 5.3 mph8.5 kmh 30.15 in1021.0 mb 0.18 in4.6 mm 0.00 in0.0 mm 0.18 in4.6 mm
06:04 PM 31.3°F-0.4°C 6.9°F-13.9°C 35% 1.1 mph NE1.8 kmh NE 1.1 mph1.8 kmh 30.07 in1018.3 mb 0.00 in0.0 mm 0.00 in0.0 mm 0.18 in4.6 mm
06:05 PM 31.3°F-0.4°C 6.9°F-13.9°C 35% 1.1 mph NNE1.8 kmh NNE 1.7 mph2.7 kmh 30.07 in1018.3 mb 0.00 in0.0 mm 0.00 in0.0 mm 0.18 in4.6 mm
06:06 PM 31.3°F-0.4°C 6.9°F-13.9°C 35% 3.2 mph N5.1 kmh N 3.7 mph6.0 kmh 30.07 in1018.3 mb 0.00 in0.0 mm 0.00 in0.0 mm 0.18 in4.6 mm
06:07 PM 31.3°F-0.4°C 7.5°F-13.6°C 36% 1.1 mph ESE1.8 kmh ESE 3.7 mph6.0 kmh 30.07 in1018.3 mb 0.00 in0.0 mm 0.00 in0.0 mm 0.18 in4.6 mm
06:08 PM 31.3°F-0.4°C 7.5°F-13.6°C 36% 1.7 mph NE2.7 kmh NE 3.7 mph6.0 kmh 30.07 in1018.3 mb 0.00 in0.0 mm 0.00 in0.0 mm 0.18 in4.6 mm
06:09 PM 31.3°F-0.4°C 7.5°F-13.6°C 36% 1.7 mph NE2.7 kmh NE 3.7 mph6.0 kmh 30.07 in1018.3 mb 0.00 in0.0 mm 0.00 in0.0 mm 0.18 in4.6 mm
06:10 PM 31.3°F-0.4°C 7.5°F-13.6°C 36% 1.7 mph NE2.7 kmh NE 3.7 mph6.0 kmh 30.07 in1018.3 mb 0.00 in0.0 mm 0.00 in0.0 mm 0.18 in4.6 mm
06:11 PM 31.3°F-0.4°C 7.5°F-13.6°C 36% 3.7 mph ESE6.0 kmh ESE 3.7 mph6.0 kmh 30.07 in1018.3 mb 0.00 in0.0 mm 0.00 in0.0 mm 0.18 in4.6 mm
06:12 PM 31.3°F-0.4°C 7.5°F-13.6°C 36% 1.7 mph NE2.7 kmh NE 3.7 mph6.0 kmh 30.07 in1018.3 mb 0.00 in0.0 mm 0.00 in0.0 mm 0.18 in4.6 mm
06:13 PM 31.3°F-0.4°C 7.5°F-13.6°C 36% 1.7 mph NE2.7 kmh NE 3.7 mph6.0 kmh 30.07 in1018.3 mb 0.00 in0.0 mm 0.00 in0.0 mm 0.18 in4.6 mm
06:14 PM 31.3°F-0.4°C 7.5°F-13.6°C 36% 2.2 mph NE3.5 kmh NE 3.7 mph6.0 kmh 30.07 in1018.3 mb 0.00 in0.0 mm 0.00 in0.0 mm 0.18 in4.6 mm
06:15 PM 31.3°F-0.4°C 7.5°F-13.6°C 36% 1.7 mph ESE2.7 kmh ESE 3.7 mph6.0 kmh 30.07 in1018.3 mb 0.00 in0.0 mm 0.00 in0.0 mm 0.18 in4.6 mm
06:16 PM 31.3°F-0.4°C 7.5°F-13.6°C 36% 1.7 mph NE2.7 kmh NE 3.7 mph6.0 kmh 30.07 in1018.3 mb 0.00 in0.0 mm 0.00 in0.0 mm 0.18 in4.6 mm
06:17 PM 31.3°F-0.4°C 7.5°F-13.6°C 36% 2.2 mph NNE3.5 kmh NNE 3.7 mph6.0 kmh 30.07 in1018.3 mb 0.00 in0.0 mm 0.00 in0.0 mm 0.18 in4.6 mm
06:18 PM 31.1°F-0.5°C 7.3°F-13.7°C 36% Calm Calm 3.7 mph6.0 kmh 30.07 in1018.3 mb 0.00 in0.0 mm 0.00 in0.0 mm 0.18 in4.6 mm
06:19 PM 31.1°F-0.5°C 7.3°F-13.7°C 36% 2.2 mph NE3.5 kmh NE 3.7 mph6.0 kmh 30.07 in1018.3 mb 0.00 in0.0 mm 0.00 in0.0 mm 0.18 in4.6 mm
06:20 PM 31.1°F-0.5°C 7.3°F-13.7°C 36% 2.2 mph NNE3.5 kmh NNE 3.7 mph6.0 kmh 30.07 in1018.3 mb 0.00 in0.0 mm 0.00 in0.0 mm 0.18 in4.6 mm
06:21 PM 31.1°F-0.5°C 7.3°F-13.7°C 36% 3.2 mph N5.1 kmh N 3.7 mph6.0 kmh 30.07 in1018.3 mb 0.00 in0.0 mm 0.00 in0.0 mm 0.18 in4.6 mm
06:22 PM 31.1°F-0.5°C 7.3°F-13.7°C 36% 2.7 mph NE4.3 kmh NE 4.7 mph7.6 kmh 30.07 in1018.3 mb 0.00 in0.0 mm 0.00 in0.0 mm 0.18 in4.6 mm
06:23 PM 31.1°F-0.5°C 7.3°F-13.7°C 36% 3.7 mph NNE6.0 kmh NNE 4.7 mph7.6 kmh 30.07 in1018.3 mb 0.00 in0.0 mm 0.00 in0.0 mm 0.18 in4.6 mm
06:24 PM 31.1°F-0.5°C 7.3°F-13.7°C 36% 2.7 mph NE4.3 kmh NE 4.7 mph7.6 kmh 30.07 in1018.3 mb 0.00 in0.0 mm 0.00 in0.0 mm 0.18 in4.6 mm
06:25 PM 31.1°F-0.5°C 7.3°F-13.7°C 36% 2.2 mph NNE3.5 kmh NNE 4.7 mph7.6 kmh 30.07 in1018.3 mb 0.00 in0.0 mm 0.00 in0.0 mm 0.18 in4.6 mm
06:26 PM 31.1°F-0.5°C 7.3°F-13.7°C 36% 2.2 mph NNE3.5 kmh NNE 4.7 mph7.6 kmh 30.07 in1018.3 mb 0.00 in0.0 mm 0.00 in0.0 mm 0.18 in4.6 mm
06:27 PM 31.1°F-0.5°C 7.3°F-13.7°C 36% 2.2 mph NNE3.5 kmh NNE 4.7 mph7.6 kmh 30.07 in1018.3 mb 0.00 in0.0 mm 0.00 in0.0 mm 0.18 in4.6 mm
06:28 PM 31.1°F-0.5°C 7.3°F-13.7°C 36% 3.2 mph NNE5.1 kmh NNE 4.7 mph7.6 kmh 30.07 in1018.3 mb 0.00 in0.0 mm 0.00 in0.0 mm 0.18 in4.6 mm
06:29 PM 31.1°F-0.5°C 7.3°F-13.7°C 36% 4.2 mph NNE6.8 kmh NNE 4.7 mph7.6 kmh 30.07 in1018.3 mb 0.00 in0.0 mm 0.00 in0.0 mm 0.18 in4.6 mm
06:30 PM 31.1°F-0.5°C 7.3°F-13.7°C 36% 3.7 mph NNE6.0 kmh NNE 4.7 mph7.6 kmh 30.07 in1018.3 mb 0.00 in0.0 mm 0.00 in0.0 mm 0.18 in4.6 mm
06:31 PM 31.1°F-0.5°C 7.3°F-13.7°C 36% 1.7 mph WNW2.7 kmh WNW 4.7 mph7.6 kmh 30.07 in1018.3 mb 0.00 in0.0 mm 0.00 in0.0 mm 0.18 in4.6 mm
06:32 PM 31.1°F-0.5°C 7.3°F-13.7°C 36% 2.7 mph WNW4.3 kmh WNW 4.7 mph7.6 kmh 30.07 in1018.3 mb 0.00 in0.0 mm 0.00 in0.0 mm 0.18 in4.6 mm
06:33 PM 31.1°F-0.5°C 7.3°F-13.7°C 36% 3.7 mph NNE6.0 kmh NNE 4.2 mph6.8 kmh 30.07 in1018.3 mb 0.00 in0.0 mm 0.00 in0.0 mm 0.18 in4.6 mm
06:34 PM 31.1°F-0.5°C 6.7°F-14.1°C 35% 3.7 mph NNE6.0 kmh NNE 4.2 mph6.8 kmh 30.07 in1018.3 mb 0.00 in0.0 mm 0.00 in0.0 mm 0.18 in4.6 mm
06:35 PM 31.1°F-0.5°C 6.7°F-14.1°C 35% 3.7 mph NNE6.0 kmh NNE 4.7 mph7.6 kmh 30.07 in1018.3 mb 0.00 in0.0 mm 0.00 in0.0 mm 0.18 in4.6 mm
06:36 PM 31.1°F-0.5°C 6.7°F-14.1°C 35% 2.2 mph NE3.5 kmh NE 4.7 mph7.6 kmh 30.07 in1018.3 mb 0.00 in0.0 mm 0.00 in0.0 mm 0.18 in4.6 mm
06:37 PM 31.1°F-0.5°C 6.7°F-14.1°C 35% 1.1 mph ESE1.8 kmh ESE 4.7 mph7.6 kmh 30.07 in1018.3 mb 0.00 in0.0 mm 0.00 in0.0 mm 0.18 in4.6 mm
06:38 PM 31.1°F-0.5°C 7.3°F-13.7°C 36% 2.2 mph NNE3.5 kmh NNE 4.7 mph7.6 kmh 30.07 in1018.3 mb 0.00 in0.0 mm 0.00 in0.0 mm 0.18 in4.6 mm
06:39 PM 31.1°F-0.5°C 7.3°F-13.7°C 36% 4.2 mph NW6.8 kmh NW 4.7 mph7.6 kmh 30.07 in1018.3 mb 0.00 in0.0 mm 0.00 in0.0 mm 0.18 in4.6 mm
06:40 PM 31.3°F-0.4°C 6.9°F-13.9°C 35% 5.3 mph NNE8.5 kmh NNE 5.3 mph8.5 kmh 30.07 in1018.3 mb 0.00 in0.0 mm 0.00 in0.0 mm 0.18 in4.6 mm
06:41 PM 31.3°F-0.4°C 6.9°F-13.9°C 35% 1.1 mph WNW1.8 kmh WNW 5.3 mph8.5 kmh 30.06 in1017.9 mb 0.00 in0.0 mm 0.00 in0.0 mm 0.18 in4.6 mm
06:42 PM 31.3°F-0.4°C 6.9°F-13.9°C 35% 2.7 mph N4.3 kmh N 5.3 mph8.5 kmh 30.06 in1017.9 mb 0.00 in0.0 mm 0.00 in0.0 mm 0.18 in4.6 mm
06:43 PM 31.3°F-0.4°C 6.9°F-13.9°C 35% 2.7 mph NE4.3 kmh NE 5.3 mph8.5 kmh 30.06 in1017.9 mb 0.00 in0.0 mm 0.00 in0.0 mm 0.18 in4.6 mm
06:44 PM 31.3°F-0.4°C 6.9°F-13.9°C 35% 4.7 mph NE7.6 kmh NE 5.3 mph8.5 kmh 30.06 in1017.9 mb 0.00 in0.0 mm 0.00 in0.0 mm 0.18 in4.6 mm
06:45 PM 31.3°F-0.4°C 6.9°F-13.9°C 35% 3.2 mph NNW5.1 kmh NNW 5.3 mph8.5 kmh 30.06 in1017.9 mb 0.00 in0.0 mm 0.00 in0.0 mm 0.18 in4.6 mm
06:46 PM 31.3°F-0.4°C 6.9°F-13.9°C 35% 2.7 mph NNE4.3 kmh NNE 5.3 mph8.5 kmh 30.06 in1017.9 mb 0.00 in0.0 mm 0.00 in0.0 mm 0.18 in4.6 mm
06:47 PM 31.3°F-0.4°C 6.9°F-13.9°C 35% 1.7 mph NNE2.7 kmh NNE 5.3 mph8.5 kmh 30.06 in1017.9 mb 0.00 in0.0 mm 0.00 in0.0 mm 0.18 in4.6 mm
06:48 PM 31.3°F-0.4°C 6.9°F-13.9°C 35% 1.7 mph NNE2.7 kmh NNE 5.3 mph8.5 kmh 30.06 in1017.9 mb 0.00 in0.0 mm 0.00 in0.0 mm 0.18 in4.6 mm
06:49 PM 31.3°F-0.4°C 6.9°F-13.9°C 35% 3.7 mph NNE6.0 kmh NNE 5.3 mph8.5 kmh 30.06 in1017.9 mb 0.00 in0.0 mm 0.00 in0.0 mm 0.18 in4.6 mm
06:50 PM 31.3°F-0.4°C 6.9°F-13.9°C 35% 2.2 mph NNE3.5 kmh NNE 4.7 mph7.6 kmh 30.06 in1017.9 mb 0.00 in0.0 mm 0.00 in0.0 mm 0.18 in4.6 mm
06:51 PM 31.3°F-0.4°C 6.9°F-13.9°C 35% 1.7 mph NNE2.7 kmh NNE 4.7 mph7.6 kmh 30.06 in1017.9 mb 0.00 in0.0 mm 0.00 in0.0 mm 0.18 in4.6 mm
06:52 PM 31.3°F-0.4°C 6.9°F-13.9°C 35% 2.7 mph NE4.3 kmh NE 4.7 mph7.6 kmh 30.06 in1017.9 mb 0.00 in0.0 mm 0.00 in0.0 mm 0.18 in4.6 mm
06:53 PM 31.3°F-0.4°C 6.9°F-13.9°C 35% 2.7 mph NE4.3 kmh NE 4.7 mph7.6 kmh 30.06 in1017.9 mb 0.00 in0.0 mm 0.00 in0.0 mm 0.18 in4.6 mm
06:54 PM 31.3°F-0.4°C 6.9°F-13.9°C 35% 1.7 mph NNE2.7 kmh NNE 3.7 mph6.0 kmh 30.06 in1017.9 mb 0.00 in0.0 mm 0.00 in0.0 mm 0.18 in4.6 mm
06:55 PM 31.3°F-0.4°C 6.9°F-13.9°C 35% 2.2 mph NE3.5 kmh NE 3.7 mph6.0 kmh 30.06 in1017.9 mb 0.00 in0.0 mm 0.00 in0.0 mm 0.18 in4.6 mm
06:56 PM 31.3°F-0.4°C 6.9°F-13.9°C 35% 2.2 mph N3.5 kmh N 3.7 mph6.0 kmh 30.06 in1017.9 mb 0.00 in0.0 mm 0.00 in0.0 mm 0.18 in4.6 mm
06:57 PM 31.3°F-0.4°C 6.9°F-13.9°C 35% 1.7 mph N2.7 kmh N 3.7 mph6.0 kmh 30.06 in1017.9 mb 0.00 in0.0 mm 0.00 in0.0 mm 0.18 in4.6 mm
06:58 PM 31.3°F-0.4°C 6.9°F-13.9°C 35% 2.7 mph N4.3 kmh N 3.7 mph6.0 kmh 30.06 in1017.9 mb 0.00 in0.0 mm 0.00 in0.0 mm 0.18 in4.6 mm
06:59 PM 31.3°F-0.4°C 6.9°F-13.9°C 35% 3.2 mph NNE5.1 kmh NNE 3.2 mph5.1 kmh 30.06 in1017.9 mb 0.00 in0.0 mm 0.00 in0.0 mm 0.18 in4.6 mm
07:00 PM 31.3°F-0.4°C 6.9°F-13.9°C 35% 2.7 mph E4.3 kmh E 3.2 mph5.1 kmh 30.06 in1017.9 mb 0.00 in0.0 mm 0.00 in0.0 mm 0.18 in4.6 mm
07:01 PM 31.3°F-0.4°C 6.9°F-13.9°C 35% 2.2 mph NNE3.5 kmh NNE 3.2 mph5.1 kmh 30.06 in1017.9 mb 0.00 in0.0 mm 0.00 in0.0 mm 0.18 in4.6 mm
07:02 PM 31.3°F-0.4°C 6.9°F-13.9°C 35% 1.7 mph NNE2.7 kmh NNE 3.2 mph5.1 kmh 30.06 in1017.9 mb 0.00 in0.0 mm 0.00 in0.0 mm 0.18 in4.6 mm
07:03 PM 31.3°F-0.4°C 6.9°F-13.9°C 35% 2.2 mph NNE3.5 kmh NNE 3.2 mph5.1 kmh 30.06 in1017.9 mb 0.00 in0.0 mm 0.00 in0.0 mm 0.18 in4.6 mm
07:04 PM 31.3°F-0.4°C 6.9°F-13.9°C 35% 3.2 mph NNE5.1 kmh NNE 3.2 mph5.1 kmh 30.05 in1017.6 mb 0.00 in0.0 mm 0.00 in0.0 mm 0.18 in4.6 mm
07:05 PM 31.3°F-0.4°C 6.9°F-13.9°C 35% 3.7 mph NE6.0 kmh NE 3.7 mph6.0 kmh 30.05 in1017.6 mb 0.00 in0.0 mm 0.00 in0.0 mm 0.18 in4.6 mm
07:06 PM 31.3°F-0.4°C 6.9°F-13.9°C 35% 4.2 mph NE6.8 kmh NE 4.2 mph6.8 kmh 30.05 in1017.6 mb 0.00 in0.0 mm 0.00 in0.0 mm 0.18 in4.6 mm
07:07 PM 31.3°F-0.4°C 6.9°F-13.9°C 35% 4.7 mph N7.6 kmh N 4.7 mph7.6 kmh 30.05 in1017.6 mb 0.00 in0.0 mm 0.00 in0.0 mm 0.18 in4.6 mm
07:08 PM 31.3°F-0.4°C 6.9°F-13.9°C 35% 4.2 mph NE6.8 kmh NE 4.7 mph7.6 kmh 30.05 in1017.6 mb 0.00 in0.0 mm 0.00 in0.0 mm 0.18 in4.6 mm
07:09 PM 31.3°F-0.4°C 6.9°F-13.9°C 35% 4.2 mph NE6.8 kmh NE 4.7 mph7.6 kmh 30.05 in1017.6 mb 0.00 in0.0 mm 0.00 in0.0 mm 0.18 in4.6 mm
07:10 PM 31.3°F-0.4°C 6.9°F-13.9°C 35% 3.2 mph NNE5.1 kmh NNE 4.7 mph7.6 kmh 30.05 in1017.6 mb 0.00 in0.0 mm 0.00 in0.0 mm 0.18 in4.6 mm
07:11 PM 31.3°F-0.4°C 6.9°F-13.9°C 35% 1.7 mph ENE2.7 kmh ENE 4.7 mph7.6 kmh 30.05 in1017.6 mb 0.00 in0.0 mm 0.00 in0.0 mm 0.18 in4.6 mm
07:12 PM 31.3°F-0.4°C 6.9°F-13.9°C 35% 3.2 mph NNE5.1 kmh NNE 4.7 mph7.6 kmh 30.05 in1017.6 mb 0.00 in0.0 mm 0.00 in0.0 mm 0.18 in4.6 mm
07:13 PM 31.3°F-0.4°C 6.9°F-13.9°C 35% 5.8 mph NNE9.3 kmh NNE 5.8 mph9.3 kmh 30.05 in1017.6 mb 0.00 in0.0 mm 0.00 in0.0 mm 0.18 in4.6 mm
07:14 PM 31.3°F-0.4°C 6.9°F-13.9°C 35% 3.7 mph NE6.0 kmh NE 5.8 mph9.3 kmh 30.05 in1017.6 mb 0.00 in0.0 mm 0.00 in0.0 mm 0.18 in4.6 mm
07:15 PM 31.3°F-0.4°C 6.9°F-13.9°C 35% 3.2 mph NNE5.1 kmh NNE 5.8 mph9.3 kmh 30.05 in1017.6 mb 0.00 in0.0 mm 0.00 in0.0 mm 0.18 in4.6 mm
07:16 PM 31.3°F-0.4°C 6.9°F-13.9°C 35% 3.2 mph NNE5.1 kmh NNE 5.8 mph9.3 kmh 30.05 in1017.6 mb 0.00 in0.0 mm 0.00 in0.0 mm 0.18 in4.6 mm
07:17 PM 31.3°F-0.4°C 6.9°F-13.9°C 35% 3.7 mph NNE6.0 kmh NNE 5.8 mph9.3 kmh 30.04 in1017.3 mb 0.00 in0.0 mm 0.00 in0.0 mm 0.18 in4.6 mm
07:18 PM 31.3°F-0.4°C 7.5°F-13.6°C 36% 7.3 mph NNE11.7 kmh NNE 8.3 mph13.4 kmh 30.04 in1017.3 mb 0.00 in0.0 mm 0.00 in0.0 mm 0.18 in4.6 mm
07:19 PM 31.3°F-0.4°C 7.5°F-13.6°C 36% 5.3 mph NNE8.5 kmh NNE 8.3 mph13.4 kmh 30.04 in1017.3 mb 0.00 in0.0 mm 0.00 in0.0 mm 0.18 in4.6 mm
07:20 PM 31.3°F-0.4°C 7.5°F-13.6°C 36% 6.3 mph NE10.1 kmh NE 8.3 mph13.4 kmh 30.04 in1017.3 mb 0.00 in0.0 mm 0.00 in0.0 mm 0.18 in4.6 mm
07:21 PM 31.3°F-0.4°C 7.5°F-13.6°C 36% 5.3 mph NNW8.5 kmh NNW 8.3 mph13.4 kmh 30.04 in1017.3 mb 0.00 in0.0 mm 0.00 in0.0 mm 0.18 in4.6 mm
07:22 PM 31.3°F-0.4°C 7.5°F-13.6°C 36% 6.3 mph NNE10.1 kmh NNE 8.3 mph13.4 kmh 30.04 in1017.3 mb 0.00 in0.0 mm 0.00 in0.0 mm 0.18 in4.6 mm
07:23 PM 31.3°F-0.4°C 7.5°F-13.6°C 36% 6.3 mph NNE10.1 kmh NNE 8.3 mph13.4 kmh 30.04 in1017.3 mb 0.00 in0.0 mm 0.00 in0.0 mm 0.18 in4.6 mm
07:24 PM 31.3°F-0.4°C 7.5°F-13.6°C 36% 2.7 mph NNE4.3 kmh NNE 8.3 mph13.4 kmh 30.04 in1017.3 mb 0.00 in0.0 mm 0.00 in0.0 mm 0.18 in4.6 mm
07:25 PM 31.3°F-0.4°C 8.1°F-13.3°C 37% 5.8 mph NNW9.3 kmh NNW 8.3 mph13.4 kmh 30.04 in1017.3 mb 0.00 in0.0 mm 0.00 in0.0 mm 0.18 in4.6 mm
07:26 PM 31.3°F-0.4°C 8.1°F-13.3°C 37% 3.7 mph ESE6.0 kmh ESE 8.3 mph13.4 kmh 30.04 in1017.3 mb 0.00 in0.0 mm 0.00 in0.0 mm 0.18 in4.6 mm
07:27 PM 31.3°F-0.4°C 8.1°F-13.3°C 37% 3.2 mph WNW5.1 kmh WNW 8.3 mph13.4 kmh 30.04 in1017.3 mb 0.00 in0.0 mm 0.00 in0.0 mm 0.18 in4.6 mm
07:29 PM 31.3°F-0.4°C 8.1°F-13.3°C 37% 5.3 mph NE8.5 kmh NE 6.8 mph10.9 kmh 30.02 in1016.6 mb 0.00 in0.0 mm 0.00 in0.0 mm 0.18 in4.6 mm
07:30 PM 31.3°F-0.4°C 8.1°F-13.3°C 37% 5.3 mph NE8.5 kmh NE 6.8 mph10.9 kmh 30.02 in1016.6 mb 0.00 in0.0 mm 0.00 in0.0 mm 0.18 in4.6 mm
07:32 PM 31.3°F-0.4°C 8.1°F-13.3°C 37% 6.3 mph NE10.1 kmh NE 6.8 mph10.9 kmh 30.02 in1016.6 mb 0.00 in0.0 mm 0.00 in0.0 mm 0.18 in4.6 mm
07:33 PM 31.3°F-0.4°C 8.1°F-13.3°C 37% 4.7 mph NNE7.6 kmh NNE 6.8 mph10.9 kmh 30.02 in1016.6 mb 0.00 in0.0 mm 0.00 in0.0 mm 0.18 in4.6 mm
07:34 PM 31.3°F-0.4°C 8.1°F-13.3°C 37% 3.7 mph NNE6.0 kmh NNE 6.8 mph10.9 kmh 30.02 in1016.6 mb 0.00 in0.0 mm 0.00 in0.0 mm 0.18 in4.6 mm
07:40 PM 31.3°F-0.4°C 8.1°F-13.3°C 37% 6.8 mph NNE10.9 kmh NNE 6.8 mph10.9 kmh 30.02 in1016.6 mb 0.00 in0.0 mm 0.00 in0.0 mm 0.18 in4.6 mm
07:41 PM 31.3°F-0.4°C 8.1°F-13.3°C 37% 4.2 mph NNE6.8 kmh NNE 6.8 mph10.9 kmh 30.03 in1016.9 mb 0.00 in0.0 mm 0.00 in0.0 mm 0.18 in4.6 mm
07:42 PM 31.3°F-0.4°C 8.1°F-13.3°C 37% 3.7 mph NNE6.0 kmh NNE 6.8 mph10.9 kmh 30.03 in1016.9 mb 0.00 in0.0 mm 0.00 in0.0 mm 0.18 in4.6 mm
07:43 PM 31.3°F-0.4°C 8.1°F-13.3°C 37% 5.8 mph NE9.3 kmh NE 6.8 mph10.9 kmh 30.03 in1016.9 mb 0.00 in0.0 mm 0.00 in0.0 mm 0.18 in4.6 mm
07:44 PM 31.3°F-0.4°C 8.1°F-13.3°C 37% 5.8 mph NNE9.3 kmh NNE 6.8 mph10.9 kmh 30.03 in1016.9 mb 0.00 in0.0 mm 0.00 in0.0 mm 0.18 in4.6 mm
07:45 PM 31.3°F-0.4°C 8.1°F-13.3°C 37% 5.3 mph NNE8.5 kmh NNE 6.8 mph10.9 kmh 30.03 in1016.9 mb 0.00 in0.0 mm 0.00 in0.0 mm 0.18 in4.6 mm
07:46 PM 31.3°F-0.4°C 8.1°F-13.3°C 37% 4.7 mph NE7.6 kmh NE 6.8 mph10.9 kmh 30.03 in1016.9 mb 0.00 in0.0 mm 0.00 in0.0 mm 0.18 in4.6 mm
07:47 PM 31.3°F-0.4°C 8.1°F-13.3°C 37% 5.3 mph NNE8.5 kmh NNE 7.8 mph12.6 kmh 30.03 in1016.9 mb 0.00 in0.0 mm 0.00 in0.0 mm 0.18 in4.6 mm
07:48 PM 31.3°F-0.4°C 8.1°F-13.3°C 37% 3.7 mph ENE6.0 kmh ENE 7.8 mph12.6 kmh 30.03 in1016.9 mb 0.00 in0.0 mm 0.00 in0.0 mm 0.18 in4.6 mm
07:49 PM 31.3°F-0.4°C 8.1°F-13.3°C 37% 4.2 mph NNE6.8 kmh NNE 7.8 mph12.6 kmh 30.03 in1016.9 mb 0.00 in0.0 mm 0.00 in0.0 mm 0.18 in4.6 mm
07:50 PM 31.3°F-0.4°C 8.1°F-13.3°C 37% 6.8 mph NNE10.9 kmh NNE 7.8 mph12.6 kmh 30.03 in1016.9 mb 0.00 in0.0 mm 0.00 in0.0 mm 0.18 in4.6 mm
07:51 PM 31.3°F-0.4°C 8.1°F-13.3°C 37% 6.3 mph NNE10.1 kmh NNE 7.8 mph12.6 kmh 30.03 in1016.9 mb 0.00 in0.0 mm 0.00 in0.0 mm 0.18 in4.6 mm
07:52 PM 31.3°F-0.4°C 8.1°F-13.3°C 37% 1.7 mph ESE2.7 kmh ESE 7.8 mph12.6 kmh 30.03 in1016.9 mb 0.00 in0.0 mm 0.00 in0.0 mm 0.18 in4.6 mm
07:53 PM 31.3°F-0.4°C 8.7°F-12.9°C 38% 4.7 mph NNE7.6 kmh NNE 7.8 mph12.6 kmh 30.01 in1016.3 mb 0.00 in0.0 mm 0.00 in0.0 mm 0.18 in4.6 mm
07:54 PM 31.3°F-0.4°C 8.7°F-12.9°C 38% 4.7 mph NNE7.6 kmh NNE 7.8 mph12.6 kmh 30.01 in1016.3 mb 0.00 in0.0 mm 0.00 in0.0 mm 0.18 in4.6 mm
07:55 PM 31.3°F-0.4°C 8.7°F-12.9°C 38% 1.7 mph NNW2.7 kmh NNW 7.8 mph12.6 kmh 30.01 in1016.3 mb 0.00 in0.0 mm 0.00 in0.0 mm 0.18 in4.6 mm
07:56 PM 31.3°F-0.4°C 8.7°F-12.9°C 38% 3.7 mph SSE6.0 kmh SSE 7.8 mph12.6 kmh 30.01 in1016.3 mb 0.00 in0.0 mm 0.00 in0.0 mm 0.18 in4.6 mm
07:57 PM 31.3°F-0.4°C 8.7°F-12.9°C 38% 4.7 mph N7.6 kmh N 6.8 mph10.9 kmh 30.01 in1016.3 mb 0.00 in0.0 mm 0.00 in0.0 mm 0.18 in4.6 mm
07:58 PM 31.3°F-0.4°C 8.7°F-12.9°C 38% 4.7 mph ENE7.6 kmh ENE 6.8 mph10.9 kmh 30.01 in1016.3 mb 0.00 in0.0 mm 0.00 in0.0 mm 0.18 in4.6 mm
07:59 PM 31.3°F-0.4°C 8.7°F-12.9°C 38% 3.2 mph NNE5.1 kmh NNE 6.8 mph10.9 kmh 30.01 in1016.3 mb 0.00 in0.0 mm 0.00 in0.0 mm 0.18 in4.6 mm
08:00 PM 31.3°F-0.4°C 8.7°F-12.9°C 38% 4.7 mph NNE7.6 kmh NNE 6.8 mph10.9 kmh 30.01 in1016.3 mb 0.00 in0.0 mm 0.00 in0.0 mm 0.18 in4.6 mm
08:01 PM 31.3°F-0.4°C 8.7°F-12.9°C 38% 2.7 mph NNE4.3 kmh NNE 6.8 mph10.9 kmh 30.01 in1016.3 mb 0.00 in0.0 mm 0.00 in0.0 mm 0.18 in4.6 mm
08:02 PM 31.3°F-0.4°C 8.7°F-12.9°C 38% 5.8 mph NNE9.3 kmh NNE 6.3 mph10.1 kmh 30.01 in1016.3 mb 0.00 in0.0 mm 0.00 in0.0 mm 0.18 in4.6 mm
08:03 PM 31.3°F-0.4°C 8.7°F-12.9°C 38% 3.7 mph NE6.0 kmh NE 6.3 mph10.1 kmh 30.01 in1016.3 mb 0.00 in0.0 mm 0.00 in0.0 mm 0.18 in4.6 mm
08:04 PM 31.3°F-0.4°C 8.7°F-12.9°C 38% 3.2 mph NNE5.1 kmh NNE 6.3 mph10.1 kmh 30.00 in1015.9 mb 0.00 in0.0 mm 0.00 in0.0 mm 0.18 in4.6 mm
08:05 PM 31.1°F-0.5°C 8.5°F-13.1°C 38% 5.3 mph NNE8.5 kmh NNE 6.3 mph10.1 kmh 30.00 in1015.9 mb 0.00 in0.0 mm 0.00 in0.0 mm 0.18 in4.6 mm
08:06 PM 31.1°F-0.5°C 8.5°F-13.1°C 38% 4.7 mph N7.6 kmh N 6.3 mph10.1 kmh 30.00 in1015.9 mb 0.00 in0.0 mm 0.00 in0.0 mm 0.18 in4.6 mm
08:07 PM 31.1°F-0.5°C 8.5°F-13.1°C 38% 4.7 mph N7.6 kmh N 6.3 mph10.1 kmh 30.00 in1015.9 mb 0.00 in0.0 mm 0.00 in0.0 mm 0.18 in4.6 mm
08:08 PM 31.1°F-0.5°C 8.5°F-13.1°C 38% 5.3 mph NNE8.5 kmh NNE 5.8 mph9.3 kmh 30.00 in1015.9 mb 0.00 in0.0 mm 0.00 in0.0 mm 0.18 in4.6 mm
08:09 PM 31.1°F-0.5°C 8.5°F-13.1°C 38% 4.7 mph W7.6 kmh W 5.8 mph9.3 kmh 30.00 in1015.9 mb 0.00 in0.0 mm 0.00 in0.0 mm 0.18 in4.6 mm
08:10 PM 31.1°F-0.5°C 9.1°F-12.7°C 39% 2.7 mph NNW4.3 kmh NNW 5.8 mph9.3 kmh 30.00 in1015.9 mb 0.00 in0.0 mm 0.00 in0.0 mm 0.18 in4.6 mm
08:11 PM 31.1°F-0.5°C 9.1°F-12.7°C 39% 5.3 mph NNE8.5 kmh NNE 5.8 mph9.3 kmh 30.00 in1015.9 mb 0.00 in0.0 mm 0.00 in0.0 mm 0.18 in4.6 mm
08:12 PM 31.1°F-0.5°C 9.1°F-12.7°C 39% 1.7 mph W2.7 kmh W 5.8 mph9.3 kmh 30.00 in1015.9 mb 0.00 in0.0 mm 0.00 in0.0 mm 0.18 in4.6 mm
08:13 PM 31.1°F-0.5°C 9.6°F-12.4°C 40% 3.7 mph ESE6.0 kmh ESE 5.3 mph8.5 kmh 30.00 in1015.9 mb 0.00 in0.0 mm 0.00 in0.0 mm 0.18 in4.6 mm
08:14 PM 31.1°F-0.5°C 9.6°F-12.4°C 40% 2.2 mph NE3.5 kmh NE 5.3 mph8.5 kmh 30.00 in1015.9 mb 0.00 in0.0 mm 0.00 in0.0 mm 0.18 in4.6 mm
08:15 PM 31.1°F-0.5°C 9.6°F-12.4°C 40% 4.2 mph N6.8 kmh N 5.3 mph8.5 kmh 30.00 in1015.9 mb 0.00 in0.0 mm 0.00 in0.0 mm 0.18 in4.6 mm
08:16 PM 31.1°F-0.5°C 9.6°F-12.4°C 40% 1.7 mph E2.7 kmh E 5.3 mph8.5 kmh 30.01 in1016.3 mb 0.00 in0.0 mm 0.00 in0.0 mm 0.18 in4.6 mm
08:17 PM 31.1°F-0.5°C 9.6°F-12.4°C 40% 4.7 mph NNE7.6 kmh NNE 5.3 mph8.5 kmh 30.01 in1016.3 mb 0.00 in0.0 mm 0.00 in0.0 mm 0.18 in4.6 mm
08:18 PM 31.1°F-0.5°C 9.6°F-12.4°C 40% 2.2 mph NE3.5 kmh NE 5.3 mph8.5 kmh 30.01 in1016.3 mb 0.00 in0.0 mm 0.00 in0.0 mm 0.18 in4.6 mm
08:19 PM 31.1°F-0.5°C 9.6°F-12.4°C 40% 5.3 mph NNE8.5 kmh NNE 5.3 mph8.5 kmh 30.01 in1016.3 mb 0.00 in0.0 mm 0.00 in0.0 mm 0.18 in4.6 mm
08:20 PM 31.1°F-0.5°C 9.6°F-12.4°C 40% 4.2 mph NNW6.8 kmh NNW 5.3 mph8.5 kmh 30.01 in1016.3 mb 0.00 in0.0 mm 0.00 in0.0 mm 0.18 in4.6 mm
08:21 PM 31.1°F-0.5°C 9.6°F-12.4°C 40% 2.2 mph NNW3.5 kmh NNW 7.8 mph12.6 kmh 30.01 in1016.3 mb 0.00 in0.0 mm 0.00 in0.0 mm 0.18 in4.6 mm
08:22 PM 31.1°F-0.5°C 9.6°F-12.4°C 40% 6.8 mph ESE10.9 kmh ESE 7.8 mph12.6 kmh 30.01 in1016.3 mb 0.00 in0.0 mm 0.00 in0.0 mm 0.18 in4.6 mm
08:23 PM 31.1°F-0.5°C 9.6°F-12.4°C 40% 3.7 mph SE6.0 kmh SE 7.8 mph12.6 kmh 30.01 in1016.3 mb 0.00 in0.0 mm 0.00 in0.0 mm 0.18 in4.6 mm
08:24 PM 31.1°F-0.5°C 9.6°F-12.4°C 40% 3.7 mph ENE6.0 kmh ENE 7.8 mph12.6 kmh 30.01 in1016.3 mb 0.00 in0.0 mm 0.00 in0.0 mm 0.18 in4.6 mm
08:25 PM 31.1°F-0.5°C 9.6°F-12.4°C 40% 4.2 mph ENE6.8 kmh ENE 7.8 mph12.6 kmh 30.01 in1016.3 mb 0.00 in0.0 mm 0.00 in0.0 mm 0.18 in4.6 mm
08:26 PM 31.1°F-0.5°C 9.6°F-12.4°C 40% 3.2 mph N5.1 kmh N 7.8 mph12.6 kmh 30.01 in1016.3 mb 0.00 in0.0 mm 0.00 in0.0 mm 0.18 in4.6 mm
08:27 PM 31.1°F-0.5°C 9.6°F-12.4°C 40% 4.7 mph ENE7.6 kmh ENE 7.8 mph12.6 kmh 30.01 in1016.3 mb 0.00 in0.0 mm 0.00 in0.0 mm 0.18 in4.6 mm
08:28 PM 31.1°F-0.5°C 9.6°F-12.4°C 40% 4.2 mph ENE6.8 kmh ENE 7.8 mph12.6 kmh 30.01 in1016.3 mb 0.00 in0.0 mm 0.00 in0.0 mm 0.18 in4.6 mm
08:29 PM 31.1°F-0.5°C 9.6°F-12.4°C 40% 3.7 mph NNE6.0 kmh NNE 7.8 mph12.6 kmh 30.00 in1015.9 mb 0.00 in0.0 mm 0.00 in0.0 mm 0.18 in4.6 mm
08:30 PM 31.1°F-0.5°C 9.6°F-12.4°C 40% 4.7 mph NE7.6 kmh NE 7.8 mph12.6 kmh 30.00 in1015.9 mb 0.00 in0.0 mm 0.00 in0.0 mm 0.18 in4.6 mm
08:31 PM 31.1°F-0.5°C 9.6°F-12.4°C 40% 2.2 mph NE3.5 kmh NE 6.8 mph10.9 kmh 30.00 in1015.9 mb 0.00 in0.0 mm 0.00 in0.0 mm 0.18 in4.6 mm
08:32 PM 31.1°F-0.5°C 9.6°F-12.4°C 40% 4.2 mph ENE6.8 kmh ENE 6.8 mph10.9 kmh 30.00 in1015.9 mb 0.00 in0.0 mm 0.00 in0.0 mm 0.18 in4.6 mm
08:33 PM 31.1°F-0.5°C 9.6°F-12.4°C 40% 3.7 mph NNE6.0 kmh NNE 4.7 mph7.6 kmh 30.00 in1015.9 mb 0.00 in0.0 mm 0.00 in0.0 mm 0.18 in4.6 mm
08:34 PM 31.1°F-0.5°C 9.6°F-12.4°C 40% 3.7 mph NNE6.0 kmh NNE 4.7 mph7.6 kmh 30.00 in1015.9 mb 0.00 in0.0 mm 0.00 in0.0 mm 0.18 in4.6 mm
08:35 PM 31.1°F-0.5°C 9.6°F-12.4°C 40% 4.2 mph S6.8 kmh S 4.7 mph7.6 kmh 30.00 in1015.9 mb 0.00 in0.0 mm 0.00 in0.0 mm 0.18 in4.6 mm
08:36 PM 31.1°F-0.5°C 9.6°F-12.4°C 40% 4.7 mph NNE7.6 kmh NNE 4.7 mph7.6 kmh 30.00 in1015.9 mb 0.00 in0.0 mm 0.00 in0.0 mm 0.18 in4.6 mm
08:37 PM 31.1°F-0.5°C 9.6°F-12.4°C 40% 4.2 mph NE6.8 kmh NE 5.3 mph8.5 kmh 30.00 in1015.9 mb 0.00 in0.0 mm 0.00 in0.0 mm 0.18 in4.6 mm
08:38 PM 31.1°F-0.5°C 9.6°F-12.4°C 40% 4.2 mph NE6.8 kmh NE 5.3 mph8.5 kmh 30.00 in1015.9 mb 0.00 in0.0 mm 0.00 in0.0 mm 0.18 in4.6 mm
08:39 PM 31.1°F-0.5°C 9.6°F-12.4°C 40% 4.2 mph ENE6.8 kmh ENE 6.3 mph10.1 kmh 30.00 in1015.9 mb 0.00 in0.0 mm 0.00 in0.0 mm 0.18 in4.6 mm
08:40 PM 31.1°F-0.5°C 9.6°F-12.4°C 40% 3.7 mph NE6.0 kmh NE 6.3 mph10.1 kmh 30.00 in1015.9 mb 0.00 in0.0 mm 0.00 in0.0 mm 0.18 in4.6 mm
08:41 PM 31.1°F-0.5°C 9.6°F-12.4°C 40% 5.3 mph NE8.5 kmh NE 6.3 mph10.1 kmh 30.00 in1015.9 mb 0.00 in0.0 mm 0.00 in0.0 mm 0.18 in4.6 mm
08:42 PM 31.1°F-0.5°C 9.6°F-12.4°C 40% 4.2 mph NNE6.8 kmh NNE 6.3 mph10.1 kmh 30.00 in1015.9 mb 0.00 in0.0 mm 0.00 in0.0 mm 0.18 in4.6 mm
08:43 PM 31.1°F-0.5°C 9.6°F-12.4°C 40% 5.8 mph N9.3 kmh N 6.3 mph10.1 kmh 30.00 in1015.9 mb 0.00 in0.0 mm 0.00 in0.0 mm 0.18 in4.6 mm
08:44 PM 31.1°F-0.5°C 9.6°F-12.4°C 40% 3.2 mph NE5.1 kmh NE 6.3 mph10.1 kmh 30.00 in1015.9 mb 0.00 in0.0 mm 0.00 in0.0 mm 0.18 in4.6 mm
08:45 PM 31.1°F-0.5°C 9.6°F-12.4°C 40% 3.2 mph NNE5.1 kmh NNE 6.3 mph10.1 kmh 30.00 in1015.9 mb 0.00 in0.0 mm 0.00 in0.0 mm 0.18 in4.6 mm
08:46 PM 31.1°F-0.5°C 9.6°F-12.4°C 40% 1.7 mph E2.7 kmh E 6.3 mph10.1 kmh 30.00 in1015.9 mb 0.00 in0.0 mm 0.00 in0.0 mm 0.18 in4.6 mm
08:47 PM 31.1°F-0.5°C 9.6°F-12.4°C 40% 3.7 mph NE6.0 kmh NE 6.3 mph10.1 kmh 30.00 in1015.9 mb 0.00 in0.0 mm 0.00 in0.0 mm 0.18 in4.6 mm
08:48 PM 31.1°F-0.5°C 9.6°F-12.4°C 40% 6.3 mph ESE10.1 kmh ESE 6.3 mph10.1 kmh 30.00 in1015.9 mb 0.00 in0.0 mm 0.00 in0.0 mm 0.18 in4.6 mm
08:49 PM 31.1°F-0.5°C 9.6°F-12.4°C 40% 4.2 mph NNE6.8 kmh NNE 6.3 mph10.1 kmh 30.00 in1015.9 mb 0.00 in0.0 mm 0.00 in0.0 mm 0.18 in4.6 mm
08:50 PM 31.1°F-0.5°C 9.6°F-12.4°C 40% 4.7 mph ENE7.6 kmh ENE 6.3 mph10.1 kmh 30.00 in1015.9 mb 0.00 in0.0 mm 0.00 in0.0 mm 0.18 in4.6 mm
08:51 PM 31.1°F-0.5°C 9.6°F-12.4°C 40% 1.7 mph NNE2.7 kmh NNE 6.3 mph10.1 kmh 30.00 in1015.9 mb 0.00 in0.0 mm 0.00 in0.0 mm 0.18 in4.6 mm
08:52 PM 31.1°F-0.5°C 10.2°F-12.1°C 41% 5.8 mph NNE9.3 kmh NNE 6.3 mph10.1 kmh 30.00 in1015.9 mb 0.00 in0.0 mm 0.00 in0.0 mm 0.18 in4.6 mm
08:53 PM 31.1°F-0.5°C 10.2°F-12.1°C 41% 3.2 mph N5.1 kmh N 6.3 mph10.1 kmh 29.99 in1015.6 mb 0.00 in0.0 mm 0.00 in0.0 mm 0.18 in4.6 mm
08:54 PM 31.1°F-0.5°C 10.2°F-12.1°C 41% 4.7 mph NNE7.6 kmh NNE 6.3 mph10.1 kmh 29.99 in1015.6 mb 0.00 in0.0 mm 0.00 in0.0 mm 0.18 in4.6 mm
08:55 PM 31.1°F-0.5°C 10.2°F-12.1°C 41% 3.2 mph N5.1 kmh N 6.3 mph10.1 kmh 29.99 in1015.6 mb 0.00 in0.0 mm 0.00 in0.0 mm 0.18 in4.6 mm
08:56 PM 31.1°F-0.5°C 10.2°F-12.1°C 41% 3.7 mph SE6.0 kmh SE 6.3 mph10.1 kmh 29.99 in1015.6 mb 0.00 in0.0 mm 0.00 in0.0 mm 0.18 in4.6 mm
08:57 PM 31.1°F-0.5°C 10.2°F-12.1°C 41% 2.7 mph SE4.3 kmh SE 6.3 mph10.1 kmh 29.99 in1015.6 mb 0.00 in0.0 mm 0.00 in0.0 mm 0.18 in4.6 mm
08:58 PM 31.1°F-0.5°C 9.6°F-12.4°C 40% 3.2 mph NNE5.1 kmh NNE 6.3 mph10.1 kmh 29.99 in1015.6 mb 0.00 in0.0 mm 0.00 in0.0 mm 0.18 in4.6 mm
08:59 PM 31.1°F-0.5°C 9.6°F-12.4°C 40% 2.7 mph NNE4.3 kmh NNE 5.8 mph9.3 kmh 29.99 in1015.6 mb 0.00 in0.0 mm 0.00 in0.0 mm 0.18 in4.6 mm
09:00 PM 31.1°F-0.5°C 9.6°F-12.4°C 40% 4.2 mph W6.8 kmh W 5.8 mph9.3 kmh 29.99 in1015.6 mb 0.00 in0.0 mm 0.00 in0.0 mm 0.18 in4.6 mm
09:01 PM 31.1°F-0.5°C 9.6°F-12.4°C 40% 5.8 mph N9.3 kmh N 6.8 mph10.9 kmh 29.99 in1015.6 mb 0.00 in0.0 mm 0.00 in0.0 mm 0.18 in4.6 mm
09:02 PM 31.1°F-0.5°C 9.6°F-12.4°C 40% 2.7 mph E4.3 kmh E 6.8 mph10.9 kmh 29.99 in1015.6 mb 0.00 in0.0 mm 0.00 in0.0 mm 0.18 in4.6 mm
09:03 PM 31.1°F-0.5°C 9.6°F-12.4°C 40% 4.2 mph E6.8 kmh E 6.8 mph10.9 kmh 29.99 in1015.6 mb 0.00 in0.0 mm 0.00 in0.0 mm 0.18 in4.6 mm
09:04 PM 31.1°F-0.5°C 9.1°F-12.7°C 39% 2.7 mph NE4.3 kmh NE 6.8 mph10.9 kmh 29.99 in1015.6 mb 0.00 in0.0 mm 0.00 in0.0 mm 0.18 in4.6 mm
09:05 PM 31.1°F-0.5°C 9.1°F-12.7°C 39% 3.2 mph NE5.1 kmh NE 6.8 mph10.9 kmh 29.99 in1015.6 mb 0.00 in0.0 mm 0.00 in0.0 mm 0.18 in4.6 mm
09:06 PM 31.1°F-0.5°C 9.1°F-12.7°C 39% 1.7 mph ENE2.7 kmh ENE 6.8 mph10.9 kmh 29.99 in1015.6 mb 0.00 in0.0 mm 0.00 in0.0 mm 0.18 in4.6 mm
09:07 PM 30.9°F-0.6°C 8.9°F-12.8°C 39% 2.7 mph NNE4.3 kmh NNE 6.8 mph10.9 kmh 29.99 in1015.6 mb 0.00 in0.0 mm 0.00 in0.0 mm 0.18 in4.6 mm
09:08 PM 30.9°F-0.6°C 8.9°F-12.8°C 39% 3.7 mph ESE6.0 kmh ESE 6.8 mph10.9 kmh 29.99 in1015.6 mb 0.00 in0.0 mm 0.00 in0.0 mm 0.18 in4.6 mm
09:09 PM 30.9°F-0.6°C 8.9°F-12.8°C 39% 2.7 mph NE4.3 kmh NE 6.8 mph10.9 kmh 29.99 in1015.6 mb 0.00 in0.0 mm 0.00 in0.0 mm 0.18 in4.6 mm
09:10 PM 30.9°F-0.6°C 8.9°F-12.8°C 39% 5.8 mph NNE9.3 kmh NNE 6.8 mph10.9 kmh 29.99 in1015.6 mb 0.00 in0.0 mm 0.00 in0.0 mm 0.18 in4.6 mm
09:11 PM 30.9°F-0.6°C 8.9°F-12.8°C 39% 2.7 mph ENE4.3 kmh ENE 5.8 mph9.3 kmh 29.99 in1015.6 mb 0.00 in0.0 mm 0.00 in0.0 mm 0.18 in4.6 mm
09:12 PM 30.9°F-0.6°C 8.9°F-12.8°C 39% 2.7 mph E4.3 kmh E 5.8 mph9.3 kmh 29.99 in1015.6 mb 0.00 in0.0 mm 0.00 in0.0 mm 0.18 in4.6 mm
09:13 PM 30.9°F-0.6°C 8.9°F-12.8°C 39% 4.7 mph E7.6 kmh E 5.8 mph9.3 kmh 29.99 in1015.6 mb 0.00 in0.0 mm 0.00 in0.0 mm 0.18 in4.6 mm
09:14 PM 30.9°F-0.6°C 8.9°F-12.8°C 39% 6.3 mph NNE10.1 kmh NNE 6.3 mph10.1 kmh 29.99 in1015.6 mb 0.00 in0.0 mm 0.00 in0.0 mm 0.18 in4.6 mm
09:15 PM 30.9°F-0.6°C 8.9°F-12.8°C 39% 4.7 mph NE7.6 kmh NE 6.3 mph10.1 kmh 29.99 in1015.6 mb 0.00 in0.0 mm 0.00 in0.0 mm 0.18 in4.6 mm
09:16 PM 30.9°F-0.6°C 8.9°F-12.8°C 39% 3.7 mph NNE6.0 kmh NNE 6.3 mph10.1 kmh 29.99 in1015.6 mb 0.00 in0.0 mm 0.00 in0.0 mm 0.18 in4.6 mm
09:17 PM 30.9°F-0.6°C 8.9°F-12.8°C 39% 3.2 mph E5.1 kmh E 6.3 mph10.1 kmh 29.98 in1015.2 mb 0.00 in0.0 mm 0.00 in0.0 mm 0.18 in4.6 mm
09:18 PM 30.9°F-0.6°C 8.9°F-12.8°C 39% 2.7 mph ESE4.3 kmh ESE 6.3 mph10.1 kmh 29.98 in1015.2 mb 0.00 in0.0 mm 0.00 in0.0 mm 0.18 in4.6 mm
09:19 PM 30.9°F-0.6°C 8.9°F-12.8°C 39% 1.1 mph SSE1.8 kmh SSE 6.3 mph10.1 kmh 29.98 in1015.2 mb 0.00 in0.0 mm 0.00 in0.0 mm 0.18 in4.6 mm
09:20 PM 30.9°F-0.6°C 9.5°F-12.5°C 40% 1.7 mph NE2.7 kmh NE 6.3 mph10.1 kmh 29.98 in1015.2 mb 0.00 in0.0 mm 0.00 in0.0 mm 0.18 in4.6 mm
09:21 PM 30.9°F-0.6°C 9.5°F-12.5°C 40% 5.8 mph NE9.3 kmh NE 6.3 mph10.1 kmh 29.98 in1015.2 mb 0.00 in0.0 mm 0.00 in0.0 mm 0.18 in4.6 mm
09:22 PM 30.9°F-0.6°C 9.5°F-12.5°C 40% 3.7 mph NNE6.0 kmh NNE 6.3 mph10.1 kmh 29.98 in1015.2 mb 0.00 in0.0 mm 0.00 in0.0 mm 0.18 in4.6 mm
09:23 PM 30.9°F-0.6°C 9.5°F-12.5°C 40% 1.7 mph NE2.7 kmh NE 6.3 mph10.1 kmh 29.98 in1015.2 mb 0.00 in0.0 mm 0.00 in0.0 mm 0.18 in4.6 mm
09:24 PM 30.9°F-0.6°C 10.0°F-12.2°C 41% 3.2 mph ESE5.1 kmh ESE 6.3 mph10.1 kmh 29.98 in1015.2 mb 0.00 in0.0 mm 0.00 in0.0 mm 0.18 in4.6 mm
09:25 PM 30.9°F-0.6°C 10.0°F-12.2°C 41% 2.7 mph N4.3 kmh N 5.8 mph9.3 kmh 29.98 in1015.2 mb 0.00 in0.0 mm 0.00 in0.0 mm 0.18 in4.6 mm
09:26 PM 30.9°F-0.6°C 10.0°F-12.2°C 41% 3.7 mph NE6.0 kmh NE 5.8 mph9.3 kmh 29.98 in1015.2 mb 0.00 in0.0 mm 0.00 in0.0 mm 0.18 in4.6 mm
09:27 PM 30.9°F-0.6°C 10.5°F-11.9°C 42% 3.2 mph NNE5.1 kmh NNE 5.8 mph9.3 kmh 29.98 in1015.2 mb 0.00 in0.0 mm 0.00 in0.0 mm 0.18 in4.6 mm
09:28 PM 30.9°F-0.6°C 10.0°F-12.2°C 41% 4.7 mph NE7.6 kmh NE 6.8 mph10.9 kmh 29.97 in1014.9 mb 0.00 in0.0 mm 0.00 in0.0 mm 0.18 in4.6 mm
09:29 PM 30.9°F-0.6°C 10.0°F-12.2°C 41% 3.7 mph NE6.0 kmh NE 6.8 mph10.9 kmh 29.97 in1014.9 mb 0.00 in0.0 mm 0.00 in0.0 mm 0.18 in4.6 mm
09:30 PM 30.9°F-0.6°C 10.0°F-12.2°C 41% 3.7 mph NE6.0 kmh NE 6.8 mph10.9 kmh 29.97 in1014.9 mb 0.00 in0.0 mm 0.00 in0.0 mm 0.18 in4.6 mm
09:31 PM 30.9°F-0.6°C 10.0°F-12.2°C 41% 4.2 mph ESE6.8 kmh ESE 6.8 mph10.9 kmh 29.97 in1014.9 mb 0.00 in0.0 mm 0.00 in0.0 mm 0.18 in4.6 mm
09:32 PM 30.9°F-0.6°C 10.0°F-12.2°C 41% 1.7 mph NE2.7 kmh NE 6.8 mph10.9 kmh 29.97 in1014.9 mb 0.00 in0.0 mm 0.00 in0.0 mm 0.18 in4.6 mm
09:33 PM 30.9°F-0.6°C 10.0°F-12.2°C 41% 1.7 mph ESE2.7 kmh ESE 6.8 mph10.9 kmh 29.97 in1014.9 mb 0.00 in0.0 mm 0.00 in0.0 mm 0.18 in4.6 mm
09:34 PM 30.9°F-0.6°C 10.0°F-12.2°C 41% 1.7 mph N2.7 kmh N 6.8 mph10.9 kmh 29.97 in1014.9 mb 0.00 in0.0 mm 0.00 in0.0 mm 0.18 in4.6 mm
09:35 PM 30.7°F-0.7°C 10.4°F-12.0°C 42% Calm Calm 6.8 mph10.9 kmh 29.97 in1014.9 mb 0.00 in0.0 mm 0.00 in0.0 mm 0.18 in4.6 mm
09:36 PM 30.7°F-0.7°C 10.4°F-12.0°C 42% 1.1 mph NE1.8 kmh NE 6.8 mph10.9 kmh 29.97 in1014.9 mb 0.00 in0.0 mm 0.00 in0.0 mm 0.18 in4.6 mm
09:37 PM 30.7°F-0.7°C 10.4°F-12.0°C 42% 2.7 mph NE4.3 kmh NE 6.8 mph10.9 kmh 29.97 in1014.9 mb 0.00 in0.0 mm 0.00 in0.0 mm 0.18 in4.6 mm
09:38 PM 30.7°F-0.7°C 11.4°F-11.4°C 44% 4.2 mph E6.8 kmh E 5.8 mph9.3 kmh 29.97 in1014.9 mb 0.00 in0.0 mm 0.00 in0.0 mm 0.18 in4.6 mm
09:39 PM 30.7°F-0.7°C 11.4°F-11.4°C 44% 4.2 mph SSE6.8 kmh SSE 5.8 mph9.3 kmh 29.97 in1014.9 mb 0.00 in0.0 mm 0.00 in0.0 mm 0.18 in4.6 mm
09:40 PM 30.7°F-0.7°C 11.9°F-11.2°C 45% 5.3 mph E8.5 kmh E 6.3 mph10.1 kmh 29.97 in1014.9 mb 0.00 in0.0 mm 0.00 in0.0 mm 0.18 in4.6 mm
09:41 PM 30.7°F-0.7°C 11.9°F-11.2°C 45% 2.7 mph NE4.3 kmh NE 6.3 mph10.1 kmh 29.97 in1014.9 mb 0.00 in0.0 mm 0.00 in0.0 mm 0.18 in4.6 mm
09:42 PM 30.7°F-0.7°C 11.9°F-11.2°C 45% 3.2 mph ESE5.1 kmh ESE 6.3 mph10.1 kmh 29.97 in1014.9 mb 0.00 in0.0 mm 0.00 in0.0 mm 0.18 in4.6 mm
09:43 PM 30.7°F-0.7°C 11.9°F-11.2°C 45% 3.2 mph ESE5.1 kmh ESE 6.3 mph10.1 kmh 29.97 in1014.9 mb 0.00 in0.0 mm 0.00 in0.0 mm 0.18 in4.6 mm
09:44 PM 30.7°F-0.7°C 12.9°F-10.6°C 47% 3.2 mph ESE5.1 kmh ESE 7.3 mph11.7 kmh 29.97 in1014.9 mb 0.00 in0.0 mm 0.00 in0.0 mm 0.18 in4.6 mm
09:45 PM 30.7°F-0.7°C 12.4°F-10.9°C 46% 4.7 mph ESE7.6 kmh ESE 7.3 mph11.7 kmh 29.97 in1014.9 mb 0.00 in0.0 mm 0.00 in0.0 mm 0.18 in4.6 mm
09:46 PM 30.7°F-0.7°C 12.4°F-10.9°C 46% 5.8 mph SSE9.3 kmh SSE 7.3 mph11.7 kmh 29.97 in1014.9 mb 0.00 in0.0 mm 0.00 in0.0 mm 0.18 in4.6 mm
09:47 PM 30.6°F-0.8°C 12.8°F-10.7°C 47% 6.3 mph NNE10.1 kmh NNE 7.3 mph11.7 kmh 29.97 in1014.9 mb 0.00 in0.0 mm 0.00 in0.0 mm 0.18 in4.6 mm
09:48 PM 30.6°F-0.8°C 14.2°F-9.9°C 50% 5.3 mph ESE8.5 kmh ESE 7.3 mph11.7 kmh 29.97 in1014.9 mb 0.00 in0.0 mm 0.00 in0.0 mm 0.18 in4.6 mm
09:49 PM 30.6°F-0.8°C 14.2°F-9.9°C 50% 4.7 mph NE7.6 kmh NE 7.3 mph11.7 kmh 29.97 in1014.9 mb 0.00 in0.0 mm 0.00 in0.0 mm 0.18 in4.6 mm
09:50 PM 30.6°F-0.8°C 15.1°F-9.4°C 52% 5.8 mph E9.3 kmh E 7.3 mph11.7 kmh 29.97 in1014.9 mb 0.00 in0.0 mm 0.00 in0.0 mm 0.18 in4.6 mm
09:51 PM 30.6°F-0.8°C 15.5°F-9.2°C 53% 4.7 mph S7.6 kmh S 7.3 mph11.7 kmh 29.97 in1014.9 mb 0.00 in0.0 mm 0.00 in0.0 mm 0.18 in4.6 mm
09:52 PM 30.4°F-0.9°C 15.3°F-9.3°C 53% 5.3 mph ESE8.5 kmh ESE 7.3 mph11.7 kmh 29.97 in1014.9 mb 0.00 in0.0 mm 0.00 in0.0 mm 0.18 in4.6 mm
09:53 PM 30.4°F-0.9°C 15.8°F-9.0°C 54% 4.7 mph NE7.6 kmh NE 7.8 mph12.6 kmh 29.96 in1014.6 mb 0.00 in0.0 mm 0.00 in0.0 mm 0.18 in4.6 mm
09:54 PM 30.4°F-0.9°C 16.2°F-8.8°C 55% 3.2 mph NNE5.1 kmh NNE 7.8 mph12.6 kmh 29.96 in1014.6 mb 0.00 in0.0 mm 0.00 in0.0 mm 0.18 in4.6 mm
09:55 PM 30.4°F-0.9°C 16.2°F-8.8°C 55% 2.7 mph S4.3 kmh S 7.8 mph12.6 kmh 29.96 in1014.6 mb 0.00 in0.0 mm 0.00 in0.0 mm 0.18 in4.6 mm
09:56 PM 30.2°F-1.0°C 16.0°F-8.9°C 55% 11.4 mph ESE18.3 kmh ESE 11.4 mph18.3 kmh 29.96 in1014.6 mb 0.00 in0.0 mm 0.00 in0.0 mm 0.18 in4.6 mm
09:57 PM 30.2°F-1.0°C 16.0°F-8.9°C 55% 5.8 mph NE9.3 kmh NE 11.4 mph18.3 kmh 29.96 in1014.6 mb 0.00 in0.0 mm 0.00 in0.0 mm 0.18 in4.6 mm
09:58 PM 30.2°F-1.0°C 16.0°F-8.9°C 55% 9.9 mph ESE15.9 kmh ESE 11.4 mph18.3 kmh 29.96 in1014.6 mb 0.00 in0.0 mm 0.00 in0.0 mm 0.18 in4.6 mm
09:59 PM 30.2°F-1.0°C 16.4°F-8.7°C 56% 9.4 mph SE15.1 kmh SE 11.4 mph18.3 kmh 29.96 in1014.6 mb 0.00 in0.0 mm 0.00 in0.0 mm 0.18 in4.6 mm
10:00 PM 30.2°F-1.0°C 16.4°F-8.7°C 56% 9.9 mph NE15.9 kmh NE 11.4 mph18.3 kmh 29.96 in1014.6 mb 0.00 in0.0 mm 0.00 in0.0 mm 0.18 in4.6 mm
10:01 PM 30.0°F-1.1°C 16.6°F-8.6°C 57% 2.7 mph ESE4.3 kmh ESE 11.4 mph18.3 kmh 29.96 in1014.6 mb 0.00 in0.0 mm 0.00 in0.0 mm 0.18 in4.6 mm
10:02 PM 30.0°F-1.1°C 17.4°F-8.1°C 59% 5.8 mph E9.3 kmh E 11.4 mph18.3 kmh 29.96 in1014.6 mb 0.00 in0.0 mm 0.00 in0.0 mm 0.18 in4.6 mm
10:03 PM 30.0°F-1.1°C 18.2°F-7.7°C 61% 5.8 mph SE9.3 kmh SE 11.4 mph18.3 kmh 29.96 in1014.6 mb 0.00 in0.0 mm 0.00 in0.0 mm 0.18 in4.6 mm
10:04 PM 29.8°F-1.2°C 18.0°F-7.8°C 61% 4.2 mph ESE6.8 kmh ESE 11.4 mph18.3 kmh 29.96 in1014.6 mb 0.00 in0.0 mm 0.00 in0.0 mm 0.18 in4.6 mm
10:05 PM 29.8°F-1.2°C 18.0°F-7.8°C 61% 7.8 mph NNE12.6 kmh NNE 11.4 mph18.3 kmh 29.95 in1014.2 mb 0.00 in0.0 mm 0.00 in0.0 mm 0.18 in4.6 mm
10:06 PM 29.8°F-1.2°C 18.0°F-7.8°C 61% 6.3 mph NNW10.1 kmh NNW 11.4 mph18.3 kmh 29.95 in1014.2 mb 0.00 in0.0 mm 0.00 in0.0 mm 0.18 in4.6 mm
10:07 PM 29.8°F-1.2°C 17.2°F-8.2°C 59% 4.2 mph SSE6.8 kmh SSE 9.9 mph15.9 kmh 29.95 in1014.2 mb 0.00 in0.0 mm 0.00 in0.0 mm 0.18 in4.6 mm
10:08 PM 29.8°F-1.2°C 17.2°F-8.2°C 59% 3.7 mph SSE6.0 kmh SSE 9.9 mph15.9 kmh 29.95 in1014.2 mb 0.00 in0.0 mm 0.00 in0.0 mm 0.18 in4.6 mm
10:09 PM 29.8°F-1.2°C 17.2°F-8.2°C 59% 4.7 mph ENE7.6 kmh ENE 9.9 mph15.9 kmh 29.95 in1014.2 mb 0.00 in0.0 mm 0.00 in0.0 mm 0.18 in4.6 mm
10:10 PM 29.8°F-1.2°C 17.6°F-8.0°C 60% 5.3 mph E8.5 kmh E 8.9 mph14.3 kmh 29.95 in1014.2 mb 0.00 in0.0 mm 0.00 in0.0 mm 0.18 in4.6 mm
10:16 PM 29.8°F-1.2°C 17.2°F-8.2°C 59% 5.3 mph E8.5 kmh E 6.8 mph10.9 kmh 29.95 in1014.2 mb 0.00 in0.0 mm 0.00 in0.0 mm 0.18 in4.6 mm
10:17 PM 29.8°F-1.2°C 17.2°F-8.2°C 59% 3.2 mph NE5.1 kmh NE 6.8 mph10.9 kmh 29.95 in1014.2 mb 0.00 in0.0 mm 0.00 in0.0 mm 0.18 in4.6 mm
10:18 PM 29.8°F-1.2°C 17.2°F-8.2°C 59% 2.2 mph NE3.5 kmh NE 6.8 mph10.9 kmh 29.95 in1014.2 mb 0.00 in0.0 mm 0.00 in0.0 mm 0.18 in4.6 mm
10:19 PM 29.8°F-1.2°C 17.2°F-8.2°C 59% 4.2 mph NE6.8 kmh NE 6.8 mph10.9 kmh 29.95 in1014.2 mb 0.00 in0.0 mm 0.00 in0.0 mm 0.18 in4.6 mm
10:20 PM 29.8°F-1.2°C 17.2°F-8.2°C 59% 5.8 mph SSE9.3 kmh SSE 5.8 mph9.3 kmh 29.95 in1014.2 mb 0.00 in0.0 mm 0.00 in0.0 mm 0.18 in4.6 mm
10:21 PM 29.8°F-1.2°C 17.2°F-8.2°C 59% 4.7 mph SE7.6 kmh SE 6.8 mph10.9 kmh 29.95 in1014.2 mb 0.00 in0.0 mm 0.00 in0.0 mm 0.18 in4.6 mm
10:22 PM 29.8°F-1.2°C 17.6°F-8.0°C 60% 4.2 mph N6.8 kmh N 6.8 mph10.9 kmh 29.95 in1014.2 mb 0.00 in0.0 mm 0.00 in0.0 mm 0.18 in4.6 mm
10:23 PM 29.7°F-1.3°C 17.5°F-8.1°C 60% 6.3 mph N10.1 kmh N 6.8 mph10.9 kmh 29.95 in1014.2 mb 0.00 in0.0 mm 0.00 in0.0 mm 0.18 in4.6 mm
10:24 PM 29.7°F-1.3°C 17.5°F-8.1°C 60% 6.3 mph N10.1 kmh N 6.8 mph10.9 kmh 29.95 in1014.2 mb 0.00 in0.0 mm 0.00 in0.0 mm 0.18 in4.6 mm
10:25 PM 29.7°F-1.3°C 16.8°F-8.4°C 58% 7.3 mph ENE11.7 kmh ENE 7.3 mph11.7 kmh 29.95 in1014.2 mb 0.00 in0.0 mm 0.00 in0.0 mm 0.18 in4.6 mm
10:26 PM 29.7°F-1.3°C 16.8°F-8.4°C 58% 7.3 mph NNE11.7 kmh NNE 7.8 mph12.6 kmh 29.95 in1014.2 mb 0.00 in0.0 mm 0.00 in0.0 mm 0.18 in4.6 mm
10:27 PM 29.5°F-1.4°C 17.0°F-8.3°C 59% 7.8 mph NNE12.6 kmh NNE 8.3 mph13.4 kmh 29.95 in1014.2 mb 0.00 in0.0 mm 0.00 in0.0 mm 0.18 in4.6 mm
10:28 PM 29.5°F-1.4°C 17.7°F-7.9°C 61% 6.3 mph NNE10.1 kmh NNE 8.3 mph13.4 kmh 29.95 in1014.2 mb 0.00 in0.0 mm 0.00 in0.0 mm 0.18 in4.6 mm
10:29 PM 29.5°F-1.4°C 18.1°F-7.7°C 62% 3.7 mph NNE6.0 kmh NNE 8.3 mph13.4 kmh 29.94 in1013.9 mb 0.00 in0.0 mm 0.00 in0.0 mm 0.18 in4.6 mm
10:30 PM 29.3°F-1.5°C 17.9°F-7.8°C 62% 4.2 mph SSE6.8 kmh SSE 8.3 mph13.4 kmh 29.94 in1013.9 mb 0.00 in0.0 mm 0.00 in0.0 mm 0.18 in4.6 mm
10:31 PM 29.3°F-1.5°C 17.5°F-8.1°C 61% 4.2 mph E6.8 kmh E 8.3 mph13.4 kmh 29.94 in1013.9 mb 0.00 in0.0 mm 0.00 in0.0 mm 0.18 in4.6 mm
10:32 PM 29.3°F-1.5°C 17.5°F-8.1°C 61% 4.7 mph W7.6 kmh W 8.3 mph13.4 kmh 29.94 in1013.9 mb 0.00 in0.0 mm 0.00 in0.0 mm 0.18 in4.6 mm
10:33 PM 29.3°F-1.5°C 17.9°F-7.8°C 62% 8.3 mph NE13.4 kmh NE 8.3 mph13.4 kmh 29.94 in1013.9 mb 0.00 in0.0 mm 0.00 in0.0 mm 0.18 in4.6 mm
10:34 PM 29.3°F-1.5°C 18.3°F-7.6°C 63% 4.2 mph NNE6.8 kmh NNE 8.3 mph13.4 kmh 29.94 in1013.9 mb 0.00 in0.0 mm 0.00 in0.0 mm 0.18 in4.6 mm
10:35 PM 29.3°F-1.5°C 17.9°F-7.8°C 62% 6.3 mph NNE10.1 kmh NNE 8.3 mph13.4 kmh 29.94 in1013.9 mb 0.00 in0.0 mm 0.00 in0.0 mm 0.18 in4.6 mm
10:36 PM 29.1°F-1.6°C 17.7°F-7.9°C 62% 6.8 mph NNE10.9 kmh NNE 8.3 mph13.4 kmh 29.94 in1013.9 mb 0.00 in0.0 mm 0.00 in0.0 mm 0.18 in4.6 mm
10:37 PM 29.1°F-1.6°C 18.1°F-7.7°C 63% 8.3 mph NNW13.4 kmh NNW 8.3 mph13.4 kmh 29.94 in1013.9 mb 0.00 in0.0 mm 0.00 in0.0 mm 0.18 in4.6 mm
10:38 PM 28.9°F-1.7°C 18.3°F-7.6°C 64% 6.3 mph N10.1 kmh N 9.4 mph15.1 kmh 29.94 in1013.9 mb 0.00 in0.0 mm 0.00 in0.0 mm 0.18 in4.6 mm
10:39 PM 28.8°F-1.8°C 18.9°F-7.3°C 66% 13.0 mph NE20.9 kmh NE 13.0 mph20.9 kmh 29.94 in1013.9 mb 0.00 in0.0 mm 0.00 in0.0 mm 0.18 in4.6 mm
10:40 PM 28.4°F-2.0°C 19.2°F-7.1°C 68% 9.9 mph N15.9 kmh N 13.0 mph20.9 kmh 29.94 in1013.9 mb 0.00 in0.0 mm 0.00 in0.0 mm 0.18 in4.6 mm
10:41 PM 28.2°F-2.1°C 19.4°F-7.0°C 69% 6.3 mph NE10.1 kmh NE 13.0 mph20.9 kmh 29.94 in1013.9 mb 0.00 in0.0 mm 0.00 in0.0 mm 0.18 in4.6 mm
10:42 PM 28.2°F-2.1°C 19.7°F-6.8°C 70% 5.8 mph NNW9.3 kmh NNW 13.0 mph20.9 kmh 29.94 in1013.9 mb 0.00 in0.0 mm 0.00 in0.0 mm 0.18 in4.6 mm
10:43 PM 28.0°F-2.2°C 20.2°F-6.6°C 72% 6.3 mph ESE10.1 kmh ESE 13.0 mph20.9 kmh 29.94 in1013.9 mb 0.00 in0.0 mm 0.00 in0.0 mm 0.18 in4.6 mm
10:44 PM 28.0°F-2.2°C 20.2°F-6.6°C 72% 8.3 mph NE13.4 kmh NE 13.0 mph20.9 kmh 29.94 in1013.9 mb 0.00 in0.0 mm 0.00 in0.0 mm 0.18 in4.6 mm
10:45 PM 27.9°F-2.3°C 20.7°F-6.3°C 74% 8.9 mph NNE14.3 kmh NNE 13.0 mph20.9 kmh 29.94 in1013.9 mb 0.00 in0.0 mm 0.00 in0.0 mm 0.18 in4.6 mm
10:46 PM 27.7°F-2.4°C 20.8°F-6.2°C 75% 5.8 mph NNW9.3 kmh NNW 13.0 mph20.9 kmh 29.94 in1013.9 mb 0.00 in0.0 mm 0.00 in0.0 mm 0.18 in4.6 mm
10:47 PM 27.7°F-2.4°C 21.1°F-6.1°C 76% 6.3 mph E10.1 kmh E 13.0 mph20.9 kmh 29.94 in1013.9 mb 0.00 in0.0 mm 0.00 in0.0 mm 0.18 in4.6 mm
10:48 PM 27.7°F-2.4°C 21.4°F-5.9°C 77% 8.3 mph ENE13.4 kmh ENE 13.0 mph20.9 kmh 29.94 in1013.9 mb 0.00 in0.0 mm 0.00 in0.0 mm 0.18 in4.6 mm
10:49 PM 27.5°F-2.5°C 21.9°F-5.6°C 79% 4.2 mph NNE6.8 kmh NNE 10.9 mph17.5 kmh 29.94 in1013.9 mb 0.00 in0.0 mm 0.00 in0.0 mm 0.18 in4.6 mm
10:50 PM 27.3°F-2.6°C 21.7°F-5.7°C 79% 7.3 mph NE11.7 kmh NE 10.9 mph17.5 kmh 29.94 in1013.9 mb 0.00 in0.0 mm 0.00 in0.0 mm 0.18 in4.6 mm
10:51 PM 27.3°F-2.6°C 22.0°F-5.6°C 80% 7.3 mph NE11.7 kmh NE 10.9 mph17.5 kmh 29.94 in1013.9 mb 0.00 in0.0 mm 0.00 in0.0 mm 0.18 in4.6 mm
10:52 PM 27.3°F-2.6°C 22.3°F-5.4°C 81% 7.8 mph NE12.6 kmh NE 10.9 mph17.5 kmh 29.94 in1013.9 mb 0.00 in0.0 mm 0.00 in0.0 mm 0.18 in4.6 mm
10:53 PM 27.1°F-2.7°C 22.6°F-5.2°C 83% 7.3 mph NNE11.7 kmh NNE 10.9 mph17.5 kmh 29.94 in1013.9 mb 0.00 in0.0 mm 0.00 in0.0 mm 0.18 in4.6 mm
10:54 PM 27.0°F-2.8°C 22.8°F-5.1°C 84% 6.3 mph NNE10.1 kmh NNE 9.4 mph15.1 kmh 29.93 in1013.5 mb 0.00 in0.0 mm 0.00 in0.0 mm 0.18 in4.6 mm
10:55 PM 26.8°F-2.9°C 22.6°F-5.2°C 84% 7.8 mph NE12.6 kmh NE 9.4 mph15.1 kmh 29.93 in1013.5 mb 0.00 in0.0 mm 0.00 in0.0 mm 0.18 in4.6 mm
10:56 PM 26.8°F-2.9°C 22.6°F-5.2°C 84% 5.8 mph NNE9.3 kmh NNE 9.4 mph15.1 kmh 29.93 in1013.5 mb 0.00 in0.0 mm 0.00 in0.0 mm 0.18 in4.6 mm
10:57 PM 26.6°F-3.0°C 22.4°F-5.3°C 84% 6.3 mph NNW10.1 kmh NNW 9.4 mph15.1 kmh 29.93 in1013.5 mb 0.00 in0.0 mm 0.00 in0.0 mm 0.18 in4.6 mm
10:58 PM 26.6°F-3.0°C 22.7°F-5.2°C 85% 4.7 mph NE7.6 kmh NE 9.4 mph15.1 kmh 29.93 in1013.5 mb 0.00 in0.0 mm 0.00 in0.0 mm 0.18 in4.6 mm
10:59 PM 26.6°F-3.0°C 22.7°F-5.2°C 85% 5.3 mph NNE8.5 kmh NNE 9.4 mph15.1 kmh 29.93 in1013.5 mb 0.00 in0.0 mm 0.00 in0.0 mm 0.18 in4.6 mm
11:00 PM 26.6°F-3.0°C 23.0°F-5.0°C 86% 7.8 mph NNE12.6 kmh NNE 9.4 mph15.1 kmh 29.93 in1013.5 mb 0.00 in0.0 mm 0.00 in0.0 mm 0.18 in4.6 mm
11:01 PM 26.4°F-3.1°C 22.8°F-5.1°C 86% 5.3 mph NE8.5 kmh NE 9.4 mph15.1 kmh 29.93 in1013.5 mb 0.00 in0.0 mm 0.00 in0.0 mm 0.18 in4.6 mm
11:02 PM 26.4°F-3.1°C 22.8°F-5.1°C 86% 7.8 mph NNE12.6 kmh NNE 9.4 mph15.1 kmh 29.93 in1013.5 mb 0.00 in0.0 mm 0.00 in0.0 mm 0.18 in4.6 mm
11:03 PM 26.4°F-3.1°C 22.8°F-5.1°C 86% 8.9 mph NNE14.3 kmh NNE 9.4 mph15.1 kmh 29.93 in1013.5 mb 0.00 in0.0 mm 0.00 in0.0 mm 0.18 in4.6 mm
11:04 PM 26.2°F-3.2°C 22.6°F-5.2°C 86% 8.3 mph NNW13.4 kmh NNW 9.9 mph15.9 kmh 29.91 in1012.9 mb 0.00 in0.0 mm 0.00 in0.0 mm 0.18 in4.6 mm
11:05 PM 26.2°F-3.2°C 22.9°F-5.1°C 87% 6.3 mph NNE10.1 kmh NNE 9.9 mph15.9 kmh 29.91 in1012.9 mb 0.00 in0.0 mm 0.00 in0.0 mm 0.18 in4.6 mm
11:06 PM 26.1°F-3.3°C 22.8°F-5.1°C 87% 7.3 mph NNE11.7 kmh NNE 9.9 mph15.9 kmh 29.91 in1012.9 mb 0.00 in0.0 mm 0.00 in0.0 mm 0.18 in4.6 mm
11:07 PM 26.1°F-3.3°C 22.8°F-5.1°C 87% 6.3 mph N10.1 kmh N 9.9 mph15.9 kmh 29.91 in1012.9 mb 0.00 in0.0 mm 0.00 in0.0 mm 0.18 in4.6 mm
11:08 PM 26.1°F-3.3°C 23.0°F-5.0°C 88% 5.3 mph NNW8.5 kmh NNW 9.9 mph15.9 kmh 29.91 in1012.9 mb 0.00 in0.0 mm 0.00 in0.0 mm 0.18 in4.6 mm
11:09 PM 26.1°F-3.3°C 23.0°F-5.0°C 88% 9.9 mph NNE15.9 kmh NNE 9.9 mph15.9 kmh 29.91 in1012.9 mb 0.00 in0.0 mm 0.00 in0.0 mm 0.18 in4.6 mm
11:10 PM 25.9°F-3.4°C 23.1°F-4.9°C 89% 9.4 mph NNE15.1 kmh NNE 10.9 mph17.5 kmh 29.91 in1012.9 mb 0.00 in0.0 mm 0.00 in0.0 mm 0.18 in4.6 mm
11:11 PM 25.9°F-3.4°C 23.1°F-4.9°C 89% 5.3 mph NNE8.5 kmh NNE 10.9 mph17.5 kmh 29.91 in1012.9 mb 0.00 in0.0 mm 0.00 in0.0 mm 0.18 in4.6 mm
11:12 PM 25.9°F-3.4°C 23.4°F-4.8°C 90% 5.8 mph NNW9.3 kmh NNW 10.9 mph17.5 kmh 29.91 in1012.9 mb 0.00 in0.0 mm 0.00 in0.0 mm 0.18 in4.6 mm
11:13 PM 25.9°F-3.4°C 23.4°F-4.8°C 90% 5.8 mph NE9.3 kmh NE 10.9 mph17.5 kmh 29.91 in1012.9 mb 0.00 in0.0 mm 0.00 in0.0 mm 0.18 in4.6 mm
11:14 PM 25.9°F-3.4°C 23.4°F-4.8°C 90% 9.4 mph N15.1 kmh N 10.9 mph17.5 kmh 29.91 in1012.9 mb 0.00 in0.0 mm 0.00 in0.0 mm 0.18 in4.6 mm
11:15 PM 25.7°F-3.5°C 23.2°F-4.9°C 90% 5.8 mph NNE9.3 kmh NNE 10.9 mph17.5 kmh 29.91 in1012.9 mb 0.00 in0.0 mm 0.00 in0.0 mm 0.18 in4.6 mm
11:16 PM 25.7°F-3.5°C 23.4°F-4.8°C 91% 5.3 mph NE8.5 kmh NE 10.9 mph17.5 kmh 29.91 in1012.9 mb 0.00 in0.0 mm 0.00 in0.0 mm 0.18 in4.6 mm
11:17 PM 25.7°F-3.5°C 23.4°F-4.8°C 91% 3.7 mph NE6.0 kmh NE 10.9 mph17.5 kmh 29.90 in1012.5 mb 0.00 in0.0 mm 0.00 in0.0 mm 0.18 in4.6 mm
11:18 PM 25.7°F-3.5°C 23.4°F-4.8°C 91% 8.3 mph NNE13.4 kmh NNE 10.9 mph17.5 kmh 29.90 in1012.5 mb 0.00 in0.0 mm 0.00 in0.0 mm 0.18 in4.6 mm
11:19 PM 25.7°F-3.5°C 23.4°F-4.8°C 91% 6.3 mph NE10.1 kmh NE 10.9 mph17.5 kmh 29.90 in1012.5 mb 0.00 in0.0 mm 0.00 in0.0 mm 0.18 in4.6 mm
11:20 PM 25.7°F-3.5°C 23.4°F-4.8°C 91% 4.7 mph NNE7.6 kmh NNE 9.4 mph15.1 kmh 29.90 in1012.5 mb 0.00 in0.0 mm 0.00 in0.0 mm 0.18 in4.6 mm
11:21 PM 25.7°F-3.5°C 23.4°F-4.8°C 91% 11.9 mph ENE19.2 kmh ENE 11.9 mph19.2 kmh 29.90 in1012.5 mb 0.00 in0.0 mm 0.00 in0.0 mm 0.18 in4.6 mm
11:22 PM 25.7°F-3.5°C 23.4°F-4.8°C 91% 9.9 mph N15.9 kmh N 11.9 mph19.2 kmh 29.90 in1012.5 mb 0.00 in0.0 mm 0.00 in0.0 mm 0.18 in4.6 mm
11:23 PM 25.5°F-3.6°C 23.2°F-4.9°C 91% 5.8 mph NNW9.3 kmh NNW 11.9 mph19.2 kmh 29.90 in1012.5 mb 0.00 in0.0 mm 0.00 in0.0 mm 0.18 in4.6 mm
11:24 PM 25.5°F-3.6°C 23.5°F-4.7°C 92% 8.3 mph NE13.4 kmh NE 11.9 mph19.2 kmh 29.90 in1012.5 mb 0.00 in0.0 mm 0.00 in0.0 mm 0.18 in4.6 mm
11:25 PM 25.5°F-3.6°C 23.5°F-4.7°C 92% 5.8 mph NNE9.3 kmh NNE 11.9 mph19.2 kmh 29.90 in1012.5 mb 0.00 in0.0 mm 0.00 in0.0 mm 0.18 in4.6 mm
11:26 PM 25.5°F-3.6°C 23.5°F-4.7°C 92% 8.9 mph NNE14.3 kmh NNE 11.9 mph19.2 kmh 29.90 in1012.5 mb 0.00 in0.0 mm 0.00 in0.0 mm 0.18 in4.6 mm
11:27 PM 25.5°F-3.6°C 23.5°F-4.7°C 92% 7.8 mph NNE12.6 kmh NNE 11.9 mph19.2 kmh 29.90 in1012.5 mb 0.00 in0.0 mm 0.00 in0.0 mm 0.18 in4.6 mm
11:28 PM 25.5°F-3.6°C 23.5°F-4.7°C 92% 6.3 mph NNW10.1 kmh NNW 11.9 mph19.2 kmh 29.90 in1012.5 mb 0.00 in0.0 mm 0.00 in0.0 mm 0.18 in4.6 mm
11:29 PM 25.5°F-3.6°C 23.5°F-4.7°C 92% 6.3 mph NNW10.1 kmh NNW 11.9 mph19.2 kmh 29.89 in1012.2 mb 0.00 in0.0 mm 0.00 in0.0 mm 0.18 in4.6 mm
11:30 PM 25.5°F-3.6°C 23.8°F-4.6°C 93% 7.3 mph NE11.7 kmh NE 11.9 mph19.2 kmh 29.89 in1012.2 mb 0.00 in0.0 mm 0.00 in0.0 mm 0.18 in4.6 mm
11:31 PM 25.5°F-3.6°C 23.8°F-4.6°C 93% 4.7 mph NNE7.6 kmh NNE 11.4 mph18.3 kmh 29.89 in1012.2 mb 0.00 in0.0 mm 0.00 in0.0 mm 0.18 in4.6 mm
11:32 PM 25.5°F-3.6°C 23.8°F-4.6°C 93% 7.8 mph WNW12.6 kmh WNW 9.9 mph15.9 kmh 29.89 in1012.2 mb 0.00 in0.0 mm 0.00 in0.0 mm 0.18 in4.6 mm
11:33 PM 25.5°F-3.6°C 23.8°F-4.6°C 93% 5.3 mph NE8.5 kmh NE 9.4 mph15.1 kmh 29.89 in1012.2 mb 0.00 in0.0 mm 0.00 in0.0 mm 0.18 in4.6 mm
11:34 PM 25.5°F-3.6°C 23.8°F-4.6°C 93% 4.7 mph NE7.6 kmh NE 8.9 mph14.3 kmh 29.89 in1012.2 mb 0.00 in0.0 mm 0.00 in0.0 mm 0.18 in4.6 mm
11:35 PM 25.3°F-3.7°C 23.6°F-4.7°C 93% 4.7 mph NNE7.6 kmh NNE 9.4 mph15.1 kmh 29.89 in1012.2 mb 0.00 in0.0 mm 0.00 in0.0 mm 0.18 in4.6 mm
11:36 PM 25.3°F-3.7°C 23.6°F-4.7°C 93% 5.8 mph N9.3 kmh N 9.4 mph15.1 kmh 29.89 in1012.2 mb 0.00 in0.0 mm 0.00 in0.0 mm 0.18 in4.6 mm
11:37 PM 25.3°F-3.7°C 23.6°F-4.7°C 93% 7.3 mph NNE11.7 kmh NNE 9.4 mph15.1 kmh 29.89 in1012.2 mb 0.00 in0.0 mm 0.00 in0.0 mm 0.18 in4.6 mm
11:38 PM 25.3°F-3.7°C 23.6°F-4.7°C 93% 5.8 mph NNE9.3 kmh NNE 9.4 mph15.1 kmh 29.89 in1012.2 mb 0.00 in0.0 mm 0.00 in0.0 mm 0.18 in4.6 mm
11:39 PM 25.3°F-3.7°C 23.8°F-4.6°C 94% 3.2 mph NNE5.1 kmh NNE 9.4 mph15.1 kmh 29.89 in1012.2 mb 0.00 in0.0 mm 0.00 in0.0 mm 0.18 in4.6 mm
11:40 PM 25.3°F-3.7°C 23.8°F-4.6°C 94% 4.2 mph NNE6.8 kmh NNE 9.4 mph15.1 kmh 29.89 in1012.2 mb 0.00 in0.0 mm 0.00 in0.0 mm 0.18 in4.6 mm
11:41 PM 25.3°F-3.7°C 23.8°F-4.6°C 94% 4.7 mph NNE7.6 kmh NNE 9.4 mph15.1 kmh 29.88 in1011.9 mb 0.00 in0.0 mm 0.00 in0.0 mm 0.18 in4.6 mm
11:42 PM 25.3°F-3.7°C 23.8°F-4.6°C 94% 4.7 mph NE7.6 kmh NE 9.4 mph15.1 kmh 29.88 in1011.9 mb 0.00 in0.0 mm 0.00 in0.0 mm 0.18 in4.6 mm
11:43 PM 25.3°F-3.7°C 23.8°F-4.6°C 94% 5.8 mph NE9.3 kmh NE 9.4 mph15.1 kmh 29.88 in1011.9 mb 0.00 in0.0 mm 0.00 in0.0 mm 0.18 in4.6 mm
11:44 PM 25.3°F-3.7°C 23.8°F-4.6°C 94% 5.8 mph NNE9.3 kmh NNE 9.4 mph15.1 kmh 29.88 in1011.9 mb 0.00 in0.0 mm 0.00 in0.0 mm 0.18 in4.6 mm
11:45 PM 25.3°F-3.7°C 23.8°F-4.6°C 94% 7.3 mph NNW11.7 kmh NNW 8.9 mph14.3 kmh 29.88 in1011.9 mb 0.00 in0.0 mm 0.00 in0.0 mm 0.18 in4.6 mm
11:46 PM 25.3°F-3.7°C 23.8°F-4.6°C 94% 5.8 mph NW9.3 kmh NW 8.9 mph14.3 kmh 29.88 in1011.9 mb 0.00 in0.0 mm 0.00 in0.0 mm 0.18 in4.6 mm
11:47 PM 25.3°F-3.7°C 23.8°F-4.6°C 94% 7.8 mph NNE12.6 kmh NNE 8.9 mph14.3 kmh 29.88 in1011.9 mb 0.00 in0.0 mm 0.00 in0.0 mm 0.18 in4.6 mm
11:48 PM 25.3°F-3.7°C 23.8°F-4.6°C 94% 7.3 mph NNW11.7 kmh NNW 8.9 mph14.3 kmh 29.88 in1011.9 mb 0.00 in0.0 mm 0.00 in0.0 mm 0.18 in4.6 mm
11:49 PM 25.3°F-3.7°C 23.8°F-4.6°C 94% 6.8 mph NNE10.9 kmh NNE 8.9 mph14.3 kmh 29.88 in1011.9 mb 0.00 in0.0 mm 0.00 in0.0 mm 0.18 in4.6 mm
11:50 PM 25.3°F-3.7°C 23.8°F-4.6°C 94% 5.8 mph NNE9.3 kmh NNE 8.9 mph14.3 kmh 29.88 in1011.9 mb 0.00 in0.0 mm 0.00 in0.0 mm 0.18 in4.6 mm
11:51 PM 25.3°F-3.7°C 23.8°F-4.6°C 94% 9.4 mph NNE15.1 kmh NNE 9.4 mph15.1 kmh 29.88 in1011.9 mb 0.00 in0.0 mm 0.00 in0.0 mm 0.18 in4.6 mm
11:52 PM 25.3°F-3.7°C 23.8°F-4.6°C 94% 6.3 mph NE10.1 kmh NE 9.4 mph15.1 kmh 29.88 in1011.9 mb 0.00 in0.0 mm 0.00 in0.0 mm 0.18 in4.6 mm
11:53 PM 25.3°F-3.7°C 23.8°F-4.6°C 94% 6.3 mph NE10.1 kmh NE 9.4 mph15.1 kmh 29.86 in1011.2 mb 0.00 in0.0 mm 0.00 in0.0 mm 0.18 in4.6 mm
11:54 PM 25.3°F-3.7°C 23.8°F-4.6°C 94% 6.8 mph NNE10.9 kmh NNE 9.4 mph15.1 kmh 29.86 in1011.2 mb 0.00 in0.0 mm 0.00 in0.0 mm 0.18 in4.6 mm
11:55 PM 25.3°F-3.7°C 23.8°F-4.6°C 94% 5.3 mph NNE8.5 kmh NNE 9.4 mph15.1 kmh 29.86 in1011.2 mb 0.00 in0.0 mm 0.00 in0.0 mm 0.18 in4.6 mm
11:56 PM 25.3°F-3.7°C 23.8°F-4.6°C 94% 5.3 mph NE8.5 kmh NE 9.4 mph15.1 kmh 29.86 in1011.2 mb 0.00 in0.0 mm 0.00 in0.0 mm 0.18 in4.6 mm
11:57 PM 25.3°F-3.7°C 23.8°F-4.6°C 94% 7.8 mph NNW12.6 kmh NNW 9.4 mph15.1 kmh 29.86 in1011.2 mb 0.00 in0.0 mm 0.00 in0.0 mm 0.18 in4.6 mm
11:58 PM 25.3°F-3.7°C 24.1°F-4.4°C 95% 6.8 mph NW10.9 kmh NW 9.4 mph15.1 kmh 29.86 in1011.2 mb 0.00 in0.0 mm 0.00 in0.0 mm 0.18 in4.6 mm
11:59 PM 25.3°F-3.7°C 24.1°F-4.4°C 95% 5.3 mph NNW8.5 kmh NNW 9.4 mph15.1 kmh 29.86 in1011.2 mb 0.00 in0.0 mm 0.00 in0.0 mm 0.18 in4.6 mm